<?xml version="1.0" encoding="utf-8" standalone="no" ?>
<gpx xmlns="http://www.topografix.com/GPX/1/1" creator="Tracker" version="1.1" xmlns:xsi="http://www.w3.org/2001/XMLSchema-instance" xsi:schemaLocation="http://www.topografix.com/GPX/1/1 http://www.topografix.com/GPX/1/1/gpx.xsd">
  <metadata>
    <time>2010-03-09T14:43:56Z</time>
  </metadata>
  <trk>
    <trkseg>
      <trkpt lat="49.970800" lon="7.853140">
        <time>2010-03-09T11:46:27Z</time>
      </trkpt>
      <trkpt lat="49.970790" lon="7.853140">
        <time>2010-03-09T11:46:30Z</time>
      </trkpt>
      <trkpt lat="49.970790" lon="7.853140">
        <time>2010-03-09T11:46:34Z</time>
      </trkpt>
      <trkpt lat="49.970790" lon="7.853140">
        <time>2010-03-09T11:46:38Z</time>
      </trkpt>
      <trkpt lat="49.970790" lon="7.853140">
        <time>2010-03-09T11:47:32Z</time>
      </trkpt>
      <trkpt lat="49.971060" lon="7.853220">
        <time>2010-03-09T11:47:38Z</time>
      </trkpt>
      <trkpt lat="49.971060" lon="7.853220">
        <time>2010-03-09T11:47:46Z</time>
      </trkpt>
      <trkpt lat="49.971060" lon="7.853220">
        <time>2010-03-09T11:47:50Z</time>
      </trkpt>
      <trkpt lat="49.971060" lon="7.853220">
        <time>2010-03-09T11:48:02Z</time>
      </trkpt>
      <trkpt lat="49.971230" lon="7.853590">
        <time>2010-03-09T11:48:10Z</time>
      </trkpt>
      <trkpt lat="49.971230" lon="7.853590">
        <time>2010-03-09T11:48:14Z</time>
      </trkpt>
      <trkpt lat="49.971230" lon="7.853590">
        <time>2010-03-09T11:48:16Z</time>
      </trkpt>
      <trkpt lat="49.971230" lon="7.853590">
        <time>2010-03-09T11:48:24Z</time>
      </trkpt>
      <trkpt lat="49.971290" lon="7.854020">
        <time>2010-03-09T11:48:30Z</time>
      </trkpt>
      <trkpt lat="49.971290" lon="7.854020">
        <time>2010-03-09T11:48:36Z</time>
      </trkpt>
      <trkpt lat="49.971290" lon="7.854020">
        <time>2010-03-09T11:48:38Z</time>
      </trkpt>
      <trkpt lat="49.971290" lon="7.854020">
        <time>2010-03-09T11:48:48Z</time>
      </trkpt>
      <trkpt lat="49.971370" lon="7.854430">
        <time>2010-03-09T11:48:54Z</time>
      </trkpt>
      <trkpt lat="49.971370" lon="7.854430">
        <time>2010-03-09T11:49:00Z</time>
      </trkpt>
      <trkpt lat="49.971370" lon="7.854430">
        <time>2010-03-09T11:49:02Z</time>
      </trkpt>
      <trkpt lat="49.971370" lon="7.854430">
        <time>2010-03-09T11:49:24Z</time>
      </trkpt>
      <trkpt lat="49.971480" lon="7.854810">
        <time>2010-03-09T11:49:30Z</time>
      </trkpt>
      <trkpt lat="49.971480" lon="7.854810">
        <time>2010-03-09T11:49:36Z</time>
      </trkpt>
      <trkpt lat="49.971480" lon="7.854810">
        <time>2010-03-09T11:49:38Z</time>
      </trkpt>
      <trkpt lat="49.971480" lon="7.854810">
        <time>2010-03-09T11:49:50Z</time>
      </trkpt>
      <trkpt lat="49.971530" lon="7.855240">
        <time>2010-03-09T11:49:56Z</time>
      </trkpt>
      <trkpt lat="49.971530" lon="7.855240">
        <time>2010-03-09T11:50:02Z</time>
      </trkpt>
      <trkpt lat="49.971530" lon="7.855240">
        <time>2010-03-09T11:50:04Z</time>
      </trkpt>
      <trkpt lat="49.971530" lon="7.855240">
        <time>2010-03-09T11:50:12Z</time>
      </trkpt>
      <trkpt lat="49.971560" lon="7.855650">
        <time>2010-03-09T11:50:18Z</time>
      </trkpt>
      <trkpt lat="49.971560" lon="7.855650">
        <time>2010-03-09T11:50:24Z</time>
      </trkpt>
      <trkpt lat="49.971560" lon="7.855650">
        <time>2010-03-09T11:50:26Z</time>
      </trkpt>
      <trkpt lat="49.971560" lon="7.855650">
        <time>2010-03-09T11:50:40Z</time>
      </trkpt>
      <trkpt lat="49.971750" lon="7.856010">
        <time>2010-03-09T11:50:46Z</time>
      </trkpt>
      <trkpt lat="49.971750" lon="7.856010">
        <time>2010-03-09T11:50:52Z</time>
      </trkpt>
      <trkpt lat="49.971750" lon="7.856010">
        <time>2010-03-09T11:50:54Z</time>
      </trkpt>
      <trkpt lat="49.971750" lon="7.856010">
        <time>2010-03-09T11:51:04Z</time>
      </trkpt>
      <trkpt lat="49.971950" lon="7.856290">
        <time>2010-03-09T11:51:10Z</time>
      </trkpt>
      <trkpt lat="49.971950" lon="7.856290">
        <time>2010-03-09T11:51:18Z</time>
      </trkpt>
      <trkpt lat="49.971950" lon="7.856290">
        <time>2010-03-09T11:51:22Z</time>
      </trkpt>
      <trkpt lat="49.971950" lon="7.856290">
        <time>2010-03-09T11:51:26Z</time>
      </trkpt>
      <trkpt lat="49.972210" lon="7.856570">
        <time>2010-03-09T11:51:32Z</time>
      </trkpt>
      <trkpt lat="49.972210" lon="7.856570">
        <time>2010-03-09T11:51:40Z</time>
      </trkpt>
      <trkpt lat="49.972210" lon="7.856570">
        <time>2010-03-09T11:51:44Z</time>
      </trkpt>
      <trkpt lat="49.972460" lon="7.856850">
        <time>2010-03-09T11:51:50Z</time>
      </trkpt>
      <trkpt lat="49.972460" lon="7.856850">
        <time>2010-03-09T11:51:58Z</time>
      </trkpt>
      <trkpt lat="49.972710" lon="7.856940">
        <time>2010-03-09T11:52:04Z</time>
      </trkpt>
      <trkpt lat="49.972710" lon="7.856940">
        <time>2010-03-09T11:52:14Z</time>
      </trkpt>
      <trkpt lat="49.972710" lon="7.856940">
        <time>2010-03-09T11:52:18Z</time>
      </trkpt>
      <trkpt lat="49.972710" lon="7.856940">
        <time>2010-03-09T11:52:50Z</time>
      </trkpt>
      <trkpt lat="49.972980" lon="7.857040">
        <time>2010-03-09T11:52:56Z</time>
      </trkpt>
      <trkpt lat="49.972980" lon="7.857040">
        <time>2010-03-09T11:53:04Z</time>
      </trkpt>
      <trkpt lat="49.972980" lon="7.857040">
        <time>2010-03-09T11:53:08Z</time>
      </trkpt>
      <trkpt lat="49.973130" lon="7.857110">
        <time>2010-03-09T11:53:12Z</time>
      </trkpt>
      <trkpt lat="49.973130" lon="7.857110">
        <time>2010-03-09T11:53:20Z</time>
      </trkpt>
      <trkpt lat="49.973130" lon="7.857110">
        <time>2010-03-09T11:53:24Z</time>
      </trkpt>
      <trkpt lat="49.973130" lon="7.857110">
        <time>2010-03-09T11:53:28Z</time>
      </trkpt>
      <trkpt lat="49.973160" lon="7.857000">
        <time>2010-03-09T11:53:32Z</time>
      </trkpt>
      <trkpt lat="49.973190" lon="7.856890">
        <time>2010-03-09T11:53:44Z</time>
      </trkpt>
      <trkpt lat="49.973190" lon="7.856890">
        <time>2010-03-09T11:53:48Z</time>
      </trkpt>
      <trkpt lat="49.973190" lon="7.856890">
        <time>2010-03-09T11:53:52Z</time>
      </trkpt>
      <trkpt lat="49.973190" lon="7.856890">
        <time>2010-03-09T11:54:04Z</time>
      </trkpt>
      <trkpt lat="49.973440" lon="7.857040">
        <time>2010-03-09T11:54:10Z</time>
      </trkpt>
      <trkpt lat="49.973560" lon="7.857240">
        <time>2010-03-09T11:54:18Z</time>
      </trkpt>
      <trkpt lat="49.973620" lon="7.857300">
        <time>2010-03-09T11:54:26Z</time>
      </trkpt>
      <trkpt lat="49.973620" lon="7.857300">
        <time>2010-03-09T11:54:30Z</time>
      </trkpt>
      <trkpt lat="49.973750" lon="7.857410">
        <time>2010-03-09T11:54:34Z</time>
      </trkpt>
      <trkpt lat="49.973820" lon="7.857410">
        <time>2010-03-09T11:54:42Z</time>
      </trkpt>
      <trkpt lat="49.973820" lon="7.857410">
        <time>2010-03-09T11:54:46Z</time>
      </trkpt>
      <trkpt lat="49.973820" lon="7.857410">
        <time>2010-03-09T11:54:50Z</time>
      </trkpt>
      <trkpt lat="49.973820" lon="7.857410">
        <time>2010-03-09T11:55:02Z</time>
      </trkpt>
      <trkpt lat="49.974070" lon="7.857390">
        <time>2010-03-09T11:55:06Z</time>
      </trkpt>
      <trkpt lat="49.974120" lon="7.857340">
        <time>2010-03-09T11:55:16Z</time>
      </trkpt>
      <trkpt lat="49.974120" lon="7.857340">
        <time>2010-03-09T11:55:20Z</time>
      </trkpt>
      <trkpt lat="49.974120" lon="7.857340">
        <time>2010-03-09T11:55:24Z</time>
      </trkpt>
      <trkpt lat="49.974120" lon="7.857340">
        <time>2010-03-09T11:55:28Z</time>
      </trkpt>
      <trkpt lat="49.974360" lon="7.857220">
        <time>2010-03-09T11:55:32Z</time>
      </trkpt>
      <trkpt lat="49.974360" lon="7.857220">
        <time>2010-03-09T11:55:40Z</time>
      </trkpt>
      <trkpt lat="49.974550" lon="7.857190">
        <time>2010-03-09T11:55:44Z</time>
      </trkpt>
      <trkpt lat="49.974620" lon="7.857220">
        <time>2010-03-09T11:55:50Z</time>
      </trkpt>
      <trkpt lat="49.974690" lon="7.857240">
        <time>2010-03-09T11:55:56Z</time>
      </trkpt>
      <trkpt lat="49.974800" lon="7.857320">
        <time>2010-03-09T11:56:04Z</time>
      </trkpt>
      <trkpt lat="49.974800" lon="7.857320">
        <time>2010-03-09T11:56:08Z</time>
      </trkpt>
      <trkpt lat="49.974880" lon="7.857340">
        <time>2010-03-09T11:56:12Z</time>
      </trkpt>
      <trkpt lat="49.974880" lon="7.857340">
        <time>2010-03-09T11:56:20Z</time>
      </trkpt>
      <trkpt lat="49.975010" lon="7.857240">
        <time>2010-03-09T11:56:26Z</time>
      </trkpt>
      <trkpt lat="49.975060" lon="7.857190">
        <time>2010-03-09T11:56:32Z</time>
      </trkpt>
      <trkpt lat="49.975060" lon="7.857190">
        <time>2010-03-09T11:56:40Z</time>
      </trkpt>
      <trkpt lat="49.975060" lon="7.857190">
        <time>2010-03-09T11:56:44Z</time>
      </trkpt>
      <trkpt lat="49.975210" lon="7.857060">
        <time>2010-03-09T11:56:48Z</time>
      </trkpt>
      <trkpt lat="49.975290" lon="7.856980">
        <time>2010-03-09T11:56:56Z</time>
      </trkpt>
      <trkpt lat="49.975410" lon="7.856940">
        <time>2010-03-09T11:57:02Z</time>
      </trkpt>
      <trkpt lat="49.975460" lon="7.856960">
        <time>2010-03-09T11:57:06Z</time>
      </trkpt>
      <trkpt lat="49.975690" lon="7.857090">
        <time>2010-03-09T11:57:20Z</time>
      </trkpt>
      <trkpt lat="49.976240" lon="7.857450">
        <time>2010-03-09T11:57:56Z</time>
      </trkpt>
      <trkpt lat="49.976310" lon="7.857540">
        <time>2010-03-09T11:58:02Z</time>
      </trkpt>
      <trkpt lat="49.976340" lon="7.857670">
        <time>2010-03-09T11:58:10Z</time>
      </trkpt>
      <trkpt lat="49.976340" lon="7.857690">
        <time>2010-03-09T11:58:14Z</time>
      </trkpt>
      <trkpt lat="49.976360" lon="7.857750">
        <time>2010-03-09T11:58:16Z</time>
      </trkpt>
      <trkpt lat="49.976430" lon="7.857840">
        <time>2010-03-09T11:58:22Z</time>
      </trkpt>
      <trkpt lat="49.976600" lon="7.858050">
        <time>2010-03-09T11:58:38Z</time>
      </trkpt>
      <trkpt lat="49.976660" lon="7.858070">
        <time>2010-03-09T11:58:42Z</time>
      </trkpt>
      <trkpt lat="49.976660" lon="7.858070">
        <time>2010-03-09T11:58:50Z</time>
      </trkpt>
      <trkpt lat="49.976710" lon="7.858220">
        <time>2010-03-09T11:58:54Z</time>
      </trkpt>
      <trkpt lat="49.976720" lon="7.858290">
        <time>2010-03-09T11:59:02Z</time>
      </trkpt>
      <trkpt lat="49.976770" lon="7.858350">
        <time>2010-03-09T11:59:06Z</time>
      </trkpt>
      <trkpt lat="49.976800" lon="7.858370">
        <time>2010-03-09T11:59:14Z</time>
      </trkpt>
      <trkpt lat="49.976800" lon="7.858370">
        <time>2010-03-09T11:59:18Z</time>
      </trkpt>
      <trkpt lat="49.976800" lon="7.858370">
        <time>2010-03-09T11:59:22Z</time>
      </trkpt>
      <trkpt lat="49.976910" lon="7.858370">
        <time>2010-03-09T11:59:26Z</time>
      </trkpt>
      <trkpt lat="49.976970" lon="7.858420">
        <time>2010-03-09T11:59:30Z</time>
      </trkpt>
      <trkpt lat="49.977040" lon="7.858460">
        <time>2010-03-09T11:59:38Z</time>
      </trkpt>
      <trkpt lat="49.977120" lon="7.858500">
        <time>2010-03-09T11:59:52Z</time>
      </trkpt>
      <trkpt lat="49.977120" lon="7.858500">
        <time>2010-03-09T11:59:56Z</time>
      </trkpt>
      <trkpt lat="49.977120" lon="7.858500">
        <time>2010-03-09T12:00:00Z</time>
      </trkpt>
      <trkpt lat="49.977120" lon="7.858500">
        <time>2010-03-09T12:00:04Z</time>
      </trkpt>
      <trkpt lat="49.977280" lon="7.858420">
        <time>2010-03-09T12:00:10Z</time>
      </trkpt>
      <trkpt lat="49.977450" lon="7.858310">
        <time>2010-03-09T12:00:24Z</time>
      </trkpt>
      <trkpt lat="49.977450" lon="7.858310">
        <time>2010-03-09T12:00:28Z</time>
      </trkpt>
      <trkpt lat="49.977450" lon="7.858310">
        <time>2010-03-09T12:00:32Z</time>
      </trkpt>
      <trkpt lat="49.977450" lon="7.858310">
        <time>2010-03-09T12:00:36Z</time>
      </trkpt>
      <trkpt lat="49.977680" lon="7.858250">
        <time>2010-03-09T12:00:40Z</time>
      </trkpt>
      <trkpt lat="49.977790" lon="7.858200">
        <time>2010-03-09T12:00:48Z</time>
      </trkpt>
      <trkpt lat="49.977790" lon="7.858200">
        <time>2010-03-09T12:00:52Z</time>
      </trkpt>
      <trkpt lat="49.977790" lon="7.858200">
        <time>2010-03-09T12:00:56Z</time>
      </trkpt>
      <trkpt lat="49.977790" lon="7.858200">
        <time>2010-03-09T12:01:00Z</time>
      </trkpt>
      <trkpt lat="49.977930" lon="7.857940">
        <time>2010-03-09T12:01:06Z</time>
      </trkpt>
      <trkpt lat="49.977990" lon="7.857900">
        <time>2010-03-09T12:01:12Z</time>
      </trkpt>
      <trkpt lat="49.978080" lon="7.857880">
        <time>2010-03-09T12:01:18Z</time>
      </trkpt>
      <trkpt lat="49.978380" lon="7.857840">
        <time>2010-03-09T12:01:38Z</time>
      </trkpt>
      <trkpt lat="49.978450" lon="7.857860">
        <time>2010-03-09T12:01:46Z</time>
      </trkpt>
      <trkpt lat="49.978490" lon="7.857860">
        <time>2010-03-09T12:01:54Z</time>
      </trkpt>
      <trkpt lat="49.978490" lon="7.857860">
        <time>2010-03-09T12:01:58Z</time>
      </trkpt>
      <trkpt lat="49.978490" lon="7.857860">
        <time>2010-03-09T12:02:02Z</time>
      </trkpt>
      <trkpt lat="49.978490" lon="7.857860">
        <time>2010-03-09T12:02:14Z</time>
      </trkpt>
      <trkpt lat="49.978670" lon="7.857730">
        <time>2010-03-09T12:02:20Z</time>
      </trkpt>
      <trkpt lat="49.978730" lon="7.857690">
        <time>2010-03-09T12:02:28Z</time>
      </trkpt>
      <trkpt lat="49.978730" lon="7.857690">
        <time>2010-03-09T12:02:32Z</time>
      </trkpt>
      <trkpt lat="49.978730" lon="7.857690">
        <time>2010-03-09T12:02:36Z</time>
      </trkpt>
      <trkpt lat="49.978890" lon="7.857730">
        <time>2010-03-09T12:02:40Z</time>
      </trkpt>
      <trkpt lat="49.978970" lon="7.857790">
        <time>2010-03-09T12:02:46Z</time>
      </trkpt>
      <trkpt lat="49.979100" lon="7.857860">
        <time>2010-03-09T12:02:52Z</time>
      </trkpt>
      <trkpt lat="49.979300" lon="7.857920">
        <time>2010-03-09T12:03:00Z</time>
      </trkpt>
      <trkpt lat="49.979330" lon="7.857940">
        <time>2010-03-09T12:03:04Z</time>
      </trkpt>
      <trkpt lat="49.979390" lon="7.857990">
        <time>2010-03-09T12:03:06Z</time>
      </trkpt>
      <trkpt lat="49.979460" lon="7.858030">
        <time>2010-03-09T12:03:16Z</time>
      </trkpt>
      <trkpt lat="49.979460" lon="7.858030">
        <time>2010-03-09T12:03:20Z</time>
      </trkpt>
      <trkpt lat="49.979460" lon="7.858030">
        <time>2010-03-09T12:03:24Z</time>
      </trkpt>
      <trkpt lat="49.979510" lon="7.858070">
        <time>2010-03-09T12:03:28Z</time>
      </trkpt>
      <trkpt lat="49.979550" lon="7.858090">
        <time>2010-03-09T12:03:32Z</time>
      </trkpt>
      <trkpt lat="49.979790" lon="7.858180">
        <time>2010-03-09T12:03:54Z</time>
      </trkpt>
      <trkpt lat="49.979860" lon="7.858160">
        <time>2010-03-09T12:04:02Z</time>
      </trkpt>
      <trkpt lat="49.979910" lon="7.858050">
        <time>2010-03-09T12:04:10Z</time>
      </trkpt>
      <trkpt lat="49.979950" lon="7.857860">
        <time>2010-03-09T12:04:20Z</time>
      </trkpt>
      <trkpt lat="49.979950" lon="7.857860">
        <time>2010-03-09T12:04:24Z</time>
      </trkpt>
      <trkpt lat="49.979950" lon="7.857860">
        <time>2010-03-09T12:04:28Z</time>
      </trkpt>
      <trkpt lat="49.979950" lon="7.857860">
        <time>2010-03-09T12:04:32Z</time>
      </trkpt>
      <trkpt lat="49.980020" lon="7.857540">
        <time>2010-03-09T12:04:36Z</time>
      </trkpt>
      <trkpt lat="49.980070" lon="7.857430">
        <time>2010-03-09T12:04:44Z</time>
      </trkpt>
      <trkpt lat="49.980070" lon="7.857430">
        <time>2010-03-09T12:04:48Z</time>
      </trkpt>
      <trkpt lat="49.980070" lon="7.857430">
        <time>2010-03-09T12:04:52Z</time>
      </trkpt>
      <trkpt lat="49.980150" lon="7.857190">
        <time>2010-03-09T12:04:56Z</time>
      </trkpt>
      <trkpt lat="49.980150" lon="7.857190">
        <time>2010-03-09T12:05:04Z</time>
      </trkpt>
      <trkpt lat="49.980150" lon="7.857190">
        <time>2010-03-09T12:05:06Z</time>
      </trkpt>
      <trkpt lat="49.980270" lon="7.857060">
        <time>2010-03-09T12:05:10Z</time>
      </trkpt>
      <trkpt lat="49.980340" lon="7.856940">
        <time>2010-03-09T12:05:20Z</time>
      </trkpt>
      <trkpt lat="49.980340" lon="7.856940">
        <time>2010-03-09T12:05:26Z</time>
      </trkpt>
      <trkpt lat="49.980350" lon="7.856740">
        <time>2010-03-09T12:05:30Z</time>
      </trkpt>
      <trkpt lat="49.980350" lon="7.856740">
        <time>2010-03-09T12:05:38Z</time>
      </trkpt>
      <trkpt lat="49.980430" lon="7.856640">
        <time>2010-03-09T12:05:42Z</time>
      </trkpt>
      <trkpt lat="49.980540" lon="7.856610">
        <time>2010-03-09T12:05:50Z</time>
      </trkpt>
      <trkpt lat="49.980540" lon="7.856610">
        <time>2010-03-09T12:05:54Z</time>
      </trkpt>
      <trkpt lat="49.980670" lon="7.856570">
        <time>2010-03-09T12:05:58Z</time>
      </trkpt>
      <trkpt lat="49.980670" lon="7.856570">
        <time>2010-03-09T12:06:06Z</time>
      </trkpt>
      <trkpt lat="49.980670" lon="7.856570">
        <time>2010-03-09T12:06:10Z</time>
      </trkpt>
      <trkpt lat="49.980910" lon="7.856490">
        <time>2010-03-09T12:06:14Z</time>
      </trkpt>
      <trkpt lat="49.980910" lon="7.856490">
        <time>2010-03-09T12:06:22Z</time>
      </trkpt>
      <trkpt lat="49.980910" lon="7.856490">
        <time>2010-03-09T12:06:26Z</time>
      </trkpt>
      <trkpt lat="49.981100" lon="7.856530">
        <time>2010-03-09T12:06:30Z</time>
      </trkpt>
      <trkpt lat="49.981280" lon="7.856550">
        <time>2010-03-09T12:06:42Z</time>
      </trkpt>
      <trkpt lat="49.981340" lon="7.856530">
        <time>2010-03-09T12:06:44Z</time>
      </trkpt>
      <trkpt lat="49.981420" lon="7.856550">
        <time>2010-03-09T12:06:50Z</time>
      </trkpt>
      <trkpt lat="49.981570" lon="7.856590">
        <time>2010-03-09T12:07:02Z</time>
      </trkpt>
      <trkpt lat="49.982040" lon="7.856760">
        <time>2010-03-09T12:07:40Z</time>
      </trkpt>
      <trkpt lat="49.982040" lon="7.856760">
        <time>2010-03-09T12:07:44Z</time>
      </trkpt>
      <trkpt lat="49.982090" lon="7.856790">
        <time>2010-03-09T12:07:46Z</time>
      </trkpt>
      <trkpt lat="49.982240" lon="7.856850">
        <time>2010-03-09T12:08:00Z</time>
      </trkpt>
      <trkpt lat="49.982350" lon="7.856810">
        <time>2010-03-09T12:08:12Z</time>
      </trkpt>
      <trkpt lat="49.982430" lon="7.856850">
        <time>2010-03-09T12:08:20Z</time>
      </trkpt>
      <trkpt lat="49.982600" lon="7.856870">
        <time>2010-03-09T12:08:32Z</time>
      </trkpt>
      <trkpt lat="49.982650" lon="7.856850">
        <time>2010-03-09T12:08:36Z</time>
      </trkpt>
      <trkpt lat="49.982650" lon="7.856850">
        <time>2010-03-09T12:08:44Z</time>
      </trkpt>
      <trkpt lat="49.982650" lon="7.856850">
        <time>2010-03-09T12:08:48Z</time>
      </trkpt>
      <trkpt lat="49.982650" lon="7.856850">
        <time>2010-03-09T12:08:56Z</time>
      </trkpt>
      <trkpt lat="49.982860" lon="7.856830">
        <time>2010-03-09T12:09:00Z</time>
      </trkpt>
      <trkpt lat="49.982860" lon="7.856830">
        <time>2010-03-09T12:09:08Z</time>
      </trkpt>
      <trkpt lat="49.982860" lon="7.856830">
        <time>2010-03-09T12:09:10Z</time>
      </trkpt>
      <trkpt lat="49.982880" lon="7.856830">
        <time>2010-03-09T12:09:12Z</time>
      </trkpt>
      <trkpt lat="49.983040" lon="7.856790">
        <time>2010-03-09T12:09:16Z</time>
      </trkpt>
      <trkpt lat="49.983230" lon="7.856740">
        <time>2010-03-09T12:09:28Z</time>
      </trkpt>
      <trkpt lat="49.983300" lon="7.856760">
        <time>2010-03-09T12:09:34Z</time>
      </trkpt>
      <trkpt lat="49.983380" lon="7.856760">
        <time>2010-03-09T12:09:44Z</time>
      </trkpt>
      <trkpt lat="49.983460" lon="7.856810">
        <time>2010-03-09T12:09:48Z</time>
      </trkpt>
      <trkpt lat="49.983530" lon="7.856790">
        <time>2010-03-09T12:09:54Z</time>
      </trkpt>
      <trkpt lat="49.983530" lon="7.856790">
        <time>2010-03-09T12:10:02Z</time>
      </trkpt>
      <trkpt lat="49.983630" lon="7.856740">
        <time>2010-03-09T12:10:06Z</time>
      </trkpt>
      <trkpt lat="49.983700" lon="7.856740">
        <time>2010-03-09T12:10:12Z</time>
      </trkpt>
      <trkpt lat="49.983720" lon="7.856740">
        <time>2010-03-09T12:10:18Z</time>
      </trkpt>
      <trkpt lat="49.983870" lon="7.856810">
        <time>2010-03-09T12:10:22Z</time>
      </trkpt>
      <trkpt lat="49.983940" lon="7.856830">
        <time>2010-03-09T12:10:24Z</time>
      </trkpt>
      <trkpt lat="49.984150" lon="7.856940">
        <time>2010-03-09T12:10:34Z</time>
      </trkpt>
      <trkpt lat="49.984150" lon="7.856940">
        <time>2010-03-09T12:10:38Z</time>
      </trkpt>
      <trkpt lat="49.984150" lon="7.856940">
        <time>2010-03-09T12:10:42Z</time>
      </trkpt>
      <trkpt lat="49.984150" lon="7.856940">
        <time>2010-03-09T12:10:58Z</time>
      </trkpt>
      <trkpt lat="49.984170" lon="7.857110">
        <time>2010-03-09T12:11:04Z</time>
      </trkpt>
      <trkpt lat="49.984250" lon="7.857280">
        <time>2010-03-09T12:11:16Z</time>
      </trkpt>
      <trkpt lat="49.984310" lon="7.857300">
        <time>2010-03-09T12:11:22Z</time>
      </trkpt>
      <trkpt lat="49.984400" lon="7.857280">
        <time>2010-03-09T12:11:28Z</time>
      </trkpt>
      <trkpt lat="49.984520" lon="7.857240">
        <time>2010-03-09T12:11:40Z</time>
      </trkpt>
      <trkpt lat="49.984520" lon="7.857240">
        <time>2010-03-09T12:11:44Z</time>
      </trkpt>
      <trkpt lat="49.984520" lon="7.857240">
        <time>2010-03-09T12:11:48Z</time>
      </trkpt>
      <trkpt lat="49.984520" lon="7.857240">
        <time>2010-03-09T12:12:22Z</time>
      </trkpt>
      <trkpt lat="49.984640" lon="7.857000">
        <time>2010-03-09T12:12:28Z</time>
      </trkpt>
      <trkpt lat="49.984710" lon="7.856910">
        <time>2010-03-09T12:12:30Z</time>
      </trkpt>
      <trkpt lat="49.984730" lon="7.856890">
        <time>2010-03-09T12:12:36Z</time>
      </trkpt>
      <trkpt lat="49.984730" lon="7.856890">
        <time>2010-03-09T12:12:40Z</time>
      </trkpt>
      <trkpt lat="49.984820" lon="7.856830">
        <time>2010-03-09T12:12:44Z</time>
      </trkpt>
      <trkpt lat="49.984820" lon="7.856830">
        <time>2010-03-09T12:12:52Z</time>
      </trkpt>
      <trkpt lat="49.984820" lon="7.856830">
        <time>2010-03-09T12:12:56Z</time>
      </trkpt>
      <trkpt lat="49.984820" lon="7.856830">
        <time>2010-03-09T12:13:06Z</time>
      </trkpt>
      <trkpt lat="49.984940" lon="7.856570">
        <time>2010-03-09T12:13:10Z</time>
      </trkpt>
      <trkpt lat="49.984930" lon="7.856400">
        <time>2010-03-09T12:13:16Z</time>
      </trkpt>
      <trkpt lat="49.984930" lon="7.856400">
        <time>2010-03-09T12:13:24Z</time>
      </trkpt>
      <trkpt lat="49.984960" lon="7.856230">
        <time>2010-03-09T12:13:28Z</time>
      </trkpt>
      <trkpt lat="49.984960" lon="7.856230">
        <time>2010-03-09T12:13:36Z</time>
      </trkpt>
      <trkpt lat="49.985010" lon="7.855950">
        <time>2010-03-09T12:13:40Z</time>
      </trkpt>
      <trkpt lat="49.985010" lon="7.855670">
        <time>2010-03-09T12:13:48Z</time>
      </trkpt>
      <trkpt lat="49.985000" lon="7.855610">
        <time>2010-03-09T12:13:54Z</time>
      </trkpt>
      <trkpt lat="49.985000" lon="7.855610">
        <time>2010-03-09T12:14:02Z</time>
      </trkpt>
      <trkpt lat="49.985000" lon="7.855610">
        <time>2010-03-09T12:14:06Z</time>
      </trkpt>
      <trkpt lat="49.985000" lon="7.855610">
        <time>2010-03-09T12:14:10Z</time>
      </trkpt>
      <trkpt lat="49.984870" lon="7.855220">
        <time>2010-03-09T12:14:16Z</time>
      </trkpt>
      <trkpt lat="49.984870" lon="7.855010">
        <time>2010-03-09T12:14:24Z</time>
      </trkpt>
      <trkpt lat="49.984870" lon="7.855010">
        <time>2010-03-09T12:14:28Z</time>
      </trkpt>
      <trkpt lat="49.984870" lon="7.855010">
        <time>2010-03-09T12:14:32Z</time>
      </trkpt>
      <trkpt lat="49.984910" lon="7.854850">
        <time>2010-03-09T12:14:36Z</time>
      </trkpt>
      <trkpt lat="49.984910" lon="7.854850">
        <time>2010-03-09T12:14:44Z</time>
      </trkpt>
      <trkpt lat="49.984910" lon="7.854850">
        <time>2010-03-09T12:14:48Z</time>
      </trkpt>
      <trkpt lat="49.984910" lon="7.854850">
        <time>2010-03-09T12:14:58Z</time>
      </trkpt>
      <trkpt lat="49.985020" lon="7.854340">
        <time>2010-03-09T12:15:04Z</time>
      </trkpt>
      <trkpt lat="49.985010" lon="7.854150">
        <time>2010-03-09T12:15:10Z</time>
      </trkpt>
      <trkpt lat="49.985010" lon="7.854150">
        <time>2010-03-09T12:15:18Z</time>
      </trkpt>
      <trkpt lat="49.985010" lon="7.854000">
        <time>2010-03-09T12:15:22Z</time>
      </trkpt>
      <trkpt lat="49.985010" lon="7.854000">
        <time>2010-03-09T12:15:30Z</time>
      </trkpt>
      <trkpt lat="49.985110" lon="7.853820">
        <time>2010-03-09T12:15:34Z</time>
      </trkpt>
      <trkpt lat="49.985120" lon="7.853800">
        <time>2010-03-09T12:15:40Z</time>
      </trkpt>
      <trkpt lat="49.985120" lon="7.853800">
        <time>2010-03-09T12:15:46Z</time>
      </trkpt>
      <trkpt lat="49.985120" lon="7.853800">
        <time>2010-03-09T12:15:50Z</time>
      </trkpt>
      <trkpt lat="49.985120" lon="7.853800">
        <time>2010-03-09T12:15:54Z</time>
      </trkpt>
      <trkpt lat="49.985130" lon="7.853350">
        <time>2010-03-09T12:16:00Z</time>
      </trkpt>
      <trkpt lat="49.985050" lon="7.853220">
        <time>2010-03-09T12:16:08Z</time>
      </trkpt>
      <trkpt lat="49.985050" lon="7.853220">
        <time>2010-03-09T12:16:12Z</time>
      </trkpt>
      <trkpt lat="49.985070" lon="7.853140">
        <time>2010-03-09T12:16:16Z</time>
      </trkpt>
      <trkpt lat="49.985070" lon="7.853140">
        <time>2010-03-09T12:16:24Z</time>
      </trkpt>
      <trkpt lat="49.985160" lon="7.852950">
        <time>2010-03-09T12:16:28Z</time>
      </trkpt>
      <trkpt lat="49.985160" lon="7.852950">
        <time>2010-03-09T12:16:34Z</time>
      </trkpt>
      <trkpt lat="49.985160" lon="7.852950">
        <time>2010-03-09T12:16:36Z</time>
      </trkpt>
      <trkpt lat="49.985160" lon="7.852950">
        <time>2010-03-09T12:16:48Z</time>
      </trkpt>
      <trkpt lat="49.985050" lon="7.852540">
        <time>2010-03-09T12:16:54Z</time>
      </trkpt>
      <trkpt lat="49.985050" lon="7.852540">
        <time>2010-03-09T12:17:02Z</time>
      </trkpt>
      <trkpt lat="49.985050" lon="7.852540">
        <time>2010-03-09T12:17:06Z</time>
      </trkpt>
      <trkpt lat="49.985160" lon="7.852540">
        <time>2010-03-09T12:17:12Z</time>
      </trkpt>
      <trkpt lat="49.985200" lon="7.852640">
        <time>2010-03-09T12:17:16Z</time>
      </trkpt>
      <trkpt lat="49.985200" lon="7.852640">
        <time>2010-03-09T12:17:24Z</time>
      </trkpt>
      <trkpt lat="49.985200" lon="7.852640">
        <time>2010-03-09T12:17:26Z</time>
      </trkpt>
      <trkpt lat="49.985200" lon="7.852640">
        <time>2010-03-09T12:17:30Z</time>
      </trkpt>
      <trkpt lat="49.985500" lon="7.852840">
        <time>2010-03-09T12:17:40Z</time>
      </trkpt>
      <trkpt lat="49.985520" lon="7.852860">
        <time>2010-03-09T12:17:44Z</time>
      </trkpt>
      <trkpt lat="49.985520" lon="7.852860">
        <time>2010-03-09T12:17:52Z</time>
      </trkpt>
      <trkpt lat="49.985520" lon="7.852860">
        <time>2010-03-09T12:17:56Z</time>
      </trkpt>
      <trkpt lat="49.985520" lon="7.852860">
        <time>2010-03-09T12:18:04Z</time>
      </trkpt>
      <trkpt lat="49.985710" lon="7.853200">
        <time>2010-03-09T12:18:10Z</time>
      </trkpt>
      <trkpt lat="49.985710" lon="7.853200">
        <time>2010-03-09T12:18:16Z</time>
      </trkpt>
      <trkpt lat="49.985710" lon="7.853200">
        <time>2010-03-09T12:18:18Z</time>
      </trkpt>
      <trkpt lat="49.985710" lon="7.853200">
        <time>2010-03-09T12:18:22Z</time>
      </trkpt>
      <trkpt lat="49.985920" lon="7.853400">
        <time>2010-03-09T12:18:26Z</time>
      </trkpt>
      <trkpt lat="49.986000" lon="7.853460">
        <time>2010-03-09T12:18:34Z</time>
      </trkpt>
      <trkpt lat="49.986050" lon="7.853520">
        <time>2010-03-09T12:18:44Z</time>
      </trkpt>
      <trkpt lat="49.986080" lon="7.853590">
        <time>2010-03-09T12:18:56Z</time>
      </trkpt>
      <trkpt lat="49.986080" lon="7.853590">
        <time>2010-03-09T12:18:58Z</time>
      </trkpt>
      <trkpt lat="49.986140" lon="7.853700">
        <time>2010-03-09T12:19:02Z</time>
      </trkpt>
      <trkpt lat="49.986200" lon="7.853800">
        <time>2010-03-09T12:19:12Z</time>
      </trkpt>
      <trkpt lat="49.986200" lon="7.853800">
        <time>2010-03-09T12:19:14Z</time>
      </trkpt>
      <trkpt lat="49.986200" lon="7.853800">
        <time>2010-03-09T12:19:16Z</time>
      </trkpt>
      <trkpt lat="49.986200" lon="7.853800">
        <time>2010-03-09T12:19:34Z</time>
      </trkpt>
      <trkpt lat="49.986410" lon="7.854080">
        <time>2010-03-09T12:19:40Z</time>
      </trkpt>
      <trkpt lat="49.986410" lon="7.854080">
        <time>2010-03-09T12:19:48Z</time>
      </trkpt>
      <trkpt lat="49.986410" lon="7.854080">
        <time>2010-03-09T12:19:52Z</time>
      </trkpt>
      <trkpt lat="49.986410" lon="7.854080">
        <time>2010-03-09T12:20:12Z</time>
      </trkpt>
      <trkpt lat="49.986670" lon="7.854280">
        <time>2010-03-09T12:20:18Z</time>
      </trkpt>
      <trkpt lat="49.986670" lon="7.854280">
        <time>2010-03-09T12:20:26Z</time>
      </trkpt>
      <trkpt lat="49.986670" lon="7.854280">
        <time>2010-03-09T12:20:30Z</time>
      </trkpt>
      <trkpt lat="49.986670" lon="7.854280">
        <time>2010-03-09T12:20:34Z</time>
      </trkpt>
      <trkpt lat="49.986870" lon="7.854490">
        <time>2010-03-09T12:20:38Z</time>
      </trkpt>
      <trkpt lat="49.986870" lon="7.854490">
        <time>2010-03-09T12:20:46Z</time>
      </trkpt>
      <trkpt lat="49.986870" lon="7.854490">
        <time>2010-03-09T12:20:50Z</time>
      </trkpt>
      <trkpt lat="49.986870" lon="7.854490">
        <time>2010-03-09T12:20:54Z</time>
      </trkpt>
      <trkpt lat="49.987100" lon="7.854580">
        <time>2010-03-09T12:20:58Z</time>
      </trkpt>
      <trkpt lat="49.987100" lon="7.854580">
        <time>2010-03-09T12:21:06Z</time>
      </trkpt>
      <trkpt lat="49.987180" lon="7.854660">
        <time>2010-03-09T12:21:10Z</time>
      </trkpt>
      <trkpt lat="49.987240" lon="7.854700">
        <time>2010-03-09T12:21:18Z</time>
      </trkpt>
      <trkpt lat="49.987310" lon="7.854750">
        <time>2010-03-09T12:21:22Z</time>
      </trkpt>
      <trkpt lat="49.987360" lon="7.854750">
        <time>2010-03-09T12:21:30Z</time>
      </trkpt>
      <trkpt lat="49.987360" lon="7.854750">
        <time>2010-03-09T12:21:34Z</time>
      </trkpt>
      <trkpt lat="49.987360" lon="7.854750">
        <time>2010-03-09T12:21:38Z</time>
      </trkpt>
      <trkpt lat="49.987430" lon="7.854660">
        <time>2010-03-09T12:21:44Z</time>
      </trkpt>
      <trkpt lat="49.987430" lon="7.854660">
        <time>2010-03-09T12:21:52Z</time>
      </trkpt>
      <trkpt lat="49.987540" lon="7.854620">
        <time>2010-03-09T12:21:56Z</time>
      </trkpt>
      <trkpt lat="49.987540" lon="7.854620">
        <time>2010-03-09T12:22:04Z</time>
      </trkpt>
      <trkpt lat="49.987540" lon="7.854620">
        <time>2010-03-09T12:22:08Z</time>
      </trkpt>
      <trkpt lat="49.987770" lon="7.854640">
        <time>2010-03-09T12:22:12Z</time>
      </trkpt>
      <trkpt lat="49.987950" lon="7.854640">
        <time>2010-03-09T12:22:22Z</time>
      </trkpt>
      <trkpt lat="49.987970" lon="7.854640">
        <time>2010-03-09T12:22:26Z</time>
      </trkpt>
      <trkpt lat="49.987970" lon="7.854640">
        <time>2010-03-09T12:22:34Z</time>
      </trkpt>
      <trkpt lat="49.987970" lon="7.854640">
        <time>2010-03-09T12:22:38Z</time>
      </trkpt>
      <trkpt lat="49.988250" lon="7.854600">
        <time>2010-03-09T12:22:44Z</time>
      </trkpt>
      <trkpt lat="49.988300" lon="7.854600">
        <time>2010-03-09T12:22:50Z</time>
      </trkpt>
      <trkpt lat="49.988370" lon="7.854600">
        <time>2010-03-09T12:23:02Z</time>
      </trkpt>
      <trkpt lat="49.988370" lon="7.854600">
        <time>2010-03-09T12:23:06Z</time>
      </trkpt>
      <trkpt lat="49.988560" lon="7.854640">
        <time>2010-03-09T12:23:10Z</time>
      </trkpt>
      <trkpt lat="49.988640" lon="7.854700">
        <time>2010-03-09T12:23:16Z</time>
      </trkpt>
      <trkpt lat="49.988650" lon="7.854730">
        <time>2010-03-09T12:23:22Z</time>
      </trkpt>
      <trkpt lat="49.988680" lon="7.854880">
        <time>2010-03-09T12:23:26Z</time>
      </trkpt>
      <trkpt lat="49.988680" lon="7.855180">
        <time>2010-03-09T12:23:36Z</time>
      </trkpt>
      <trkpt lat="49.988650" lon="7.855480">
        <time>2010-03-09T12:23:50Z</time>
      </trkpt>
      <trkpt lat="49.988660" lon="7.855580">
        <time>2010-03-09T12:24:00Z</time>
      </trkpt>
      <trkpt lat="49.988660" lon="7.855580">
        <time>2010-03-09T12:24:02Z</time>
      </trkpt>
      <trkpt lat="49.988660" lon="7.855580">
        <time>2010-03-09T12:24:04Z</time>
      </trkpt>
      <trkpt lat="49.988710" lon="7.855730">
        <time>2010-03-09T12:24:08Z</time>
      </trkpt>
      <trkpt lat="49.988790" lon="7.855930">
        <time>2010-03-09T12:24:22Z</time>
      </trkpt>
      <trkpt lat="49.988800" lon="7.856040">
        <time>2010-03-09T12:24:24Z</time>
      </trkpt>
      <trkpt lat="49.988820" lon="7.856120">
        <time>2010-03-09T12:24:32Z</time>
      </trkpt>
      <trkpt lat="49.988820" lon="7.856120">
        <time>2010-03-09T12:24:36Z</time>
      </trkpt>
      <trkpt lat="49.988820" lon="7.856120">
        <time>2010-03-09T12:24:38Z</time>
      </trkpt>
      <trkpt lat="49.988820" lon="7.856120">
        <time>2010-03-09T12:24:46Z</time>
      </trkpt>
      <trkpt lat="49.988880" lon="7.856340">
        <time>2010-03-09T12:24:50Z</time>
      </trkpt>
      <trkpt lat="49.988880" lon="7.856340">
        <time>2010-03-09T12:24:58Z</time>
      </trkpt>
      <trkpt lat="49.988880" lon="7.856340">
        <time>2010-03-09T12:25:00Z</time>
      </trkpt>
      <trkpt lat="49.988940" lon="7.856510">
        <time>2010-03-09T12:25:04Z</time>
      </trkpt>
      <trkpt lat="49.988990" lon="7.856720">
        <time>2010-03-09T12:25:16Z</time>
      </trkpt>
      <trkpt lat="49.988990" lon="7.856720">
        <time>2010-03-09T12:25:18Z</time>
      </trkpt>
      <trkpt lat="49.988990" lon="7.856720">
        <time>2010-03-09T12:25:20Z</time>
      </trkpt>
      <trkpt lat="49.988990" lon="7.856720">
        <time>2010-03-09T12:25:30Z</time>
      </trkpt>
      <trkpt lat="49.989120" lon="7.856640">
        <time>2010-03-09T12:25:36Z</time>
      </trkpt>
      <trkpt lat="49.989120" lon="7.856570">
        <time>2010-03-09T12:25:40Z</time>
      </trkpt>
      <trkpt lat="49.989120" lon="7.856570">
        <time>2010-03-09T12:25:44Z</time>
      </trkpt>
      <trkpt lat="49.989120" lon="7.856570">
        <time>2010-03-09T12:25:48Z</time>
      </trkpt>
      <trkpt lat="49.989140" lon="7.856360">
        <time>2010-03-09T12:25:52Z</time>
      </trkpt>
      <trkpt lat="49.989160" lon="7.856270">
        <time>2010-03-09T12:26:00Z</time>
      </trkpt>
      <trkpt lat="49.989160" lon="7.856270">
        <time>2010-03-09T12:26:04Z</time>
      </trkpt>
      <trkpt lat="49.989160" lon="7.856270">
        <time>2010-03-09T12:26:08Z</time>
      </trkpt>
      <trkpt lat="49.989160" lon="7.856270">
        <time>2010-03-09T12:26:16Z</time>
      </trkpt>
      <trkpt lat="49.989310" lon="7.855840">
        <time>2010-03-09T12:26:22Z</time>
      </trkpt>
      <trkpt lat="49.989350" lon="7.855710">
        <time>2010-03-09T12:26:30Z</time>
      </trkpt>
      <trkpt lat="49.989350" lon="7.855710">
        <time>2010-03-09T12:26:34Z</time>
      </trkpt>
      <trkpt lat="49.989350" lon="7.855710">
        <time>2010-03-09T12:26:38Z</time>
      </trkpt>
      <trkpt lat="49.989350" lon="7.855710">
        <time>2010-03-09T12:26:42Z</time>
      </trkpt>
      <trkpt lat="49.989410" lon="7.855370">
        <time>2010-03-09T12:26:46Z</time>
      </trkpt>
      <trkpt lat="49.989440" lon="7.855240">
        <time>2010-03-09T12:26:54Z</time>
      </trkpt>
      <trkpt lat="49.989450" lon="7.855220">
        <time>2010-03-09T12:27:00Z</time>
      </trkpt>
      <trkpt lat="49.989450" lon="7.855220">
        <time>2010-03-09T12:27:04Z</time>
      </trkpt>
      <trkpt lat="49.989450" lon="7.855220">
        <time>2010-03-09T12:27:08Z</time>
      </trkpt>
      <trkpt lat="49.989480" lon="7.854980">
        <time>2010-03-09T12:27:12Z</time>
      </trkpt>
      <trkpt lat="49.989490" lon="7.854810">
        <time>2010-03-09T12:27:22Z</time>
      </trkpt>
      <trkpt lat="49.989490" lon="7.854810">
        <time>2010-03-09T12:27:26Z</time>
      </trkpt>
      <trkpt lat="49.989490" lon="7.854810">
        <time>2010-03-09T12:27:30Z</time>
      </trkpt>
      <trkpt lat="49.989500" lon="7.854620">
        <time>2010-03-09T12:27:34Z</time>
      </trkpt>
      <trkpt lat="49.989520" lon="7.854580">
        <time>2010-03-09T12:27:42Z</time>
      </trkpt>
      <trkpt lat="49.989520" lon="7.854580">
        <time>2010-03-09T12:27:46Z</time>
      </trkpt>
      <trkpt lat="49.989520" lon="7.854580">
        <time>2010-03-09T12:27:50Z</time>
      </trkpt>
      <trkpt lat="49.989520" lon="7.854580">
        <time>2010-03-09T12:28:02Z</time>
      </trkpt>
      <trkpt lat="49.989570" lon="7.854340">
        <time>2010-03-09T12:28:06Z</time>
      </trkpt>
      <trkpt lat="49.989570" lon="7.854250">
        <time>2010-03-09T12:28:14Z</time>
      </trkpt>
      <trkpt lat="49.989530" lon="7.854100">
        <time>2010-03-09T12:28:26Z</time>
      </trkpt>
      <trkpt lat="49.989530" lon="7.854100">
        <time>2010-03-09T12:28:30Z</time>
      </trkpt>
      <trkpt lat="49.989530" lon="7.854100">
        <time>2010-03-09T12:28:34Z</time>
      </trkpt>
      <trkpt lat="49.989470" lon="7.853870">
        <time>2010-03-09T12:28:38Z</time>
      </trkpt>
      <trkpt lat="49.989460" lon="7.853670">
        <time>2010-03-09T12:28:48Z</time>
      </trkpt>
      <trkpt lat="49.989460" lon="7.853670">
        <time>2010-03-09T12:28:52Z</time>
      </trkpt>
      <trkpt lat="49.989460" lon="7.853670">
        <time>2010-03-09T12:28:56Z</time>
      </trkpt>
      <trkpt lat="49.989530" lon="7.853570">
        <time>2010-03-09T12:29:00Z</time>
      </trkpt>
      <trkpt lat="49.989530" lon="7.853570">
        <time>2010-03-09T12:29:08Z</time>
      </trkpt>
      <trkpt lat="49.989530" lon="7.853570">
        <time>2010-03-09T12:29:10Z</time>
      </trkpt>
      <trkpt lat="49.989540" lon="7.853550">
        <time>2010-03-09T12:29:12Z</time>
      </trkpt>
      <trkpt lat="49.989620" lon="7.853420">
        <time>2010-03-09T12:29:16Z</time>
      </trkpt>
      <trkpt lat="49.989650" lon="7.853310">
        <time>2010-03-09T12:29:26Z</time>
      </trkpt>
      <trkpt lat="49.989650" lon="7.853310">
        <time>2010-03-09T12:29:30Z</time>
      </trkpt>
      <trkpt lat="49.989650" lon="7.853310">
        <time>2010-03-09T12:29:34Z</time>
      </trkpt>
      <trkpt lat="49.989650" lon="7.853310">
        <time>2010-03-09T12:29:54Z</time>
      </trkpt>
      <trkpt lat="49.989680" lon="7.852880">
        <time>2010-03-09T12:30:00Z</time>
      </trkpt>
      <trkpt lat="49.989680" lon="7.852880">
        <time>2010-03-09T12:30:06Z</time>
      </trkpt>
      <trkpt lat="49.989700" lon="7.852730">
        <time>2010-03-09T12:30:10Z</time>
      </trkpt>
      <trkpt lat="49.989720" lon="7.852670">
        <time>2010-03-09T12:30:20Z</time>
      </trkpt>
      <trkpt lat="49.989750" lon="7.852620">
        <time>2010-03-09T12:30:22Z</time>
      </trkpt>
      <trkpt lat="49.989780" lon="7.852600">
        <time>2010-03-09T12:30:30Z</time>
      </trkpt>
      <trkpt lat="49.989780" lon="7.852600">
        <time>2010-03-09T12:30:34Z</time>
      </trkpt>
      <trkpt lat="49.989790" lon="7.852520">
        <time>2010-03-09T12:30:38Z</time>
      </trkpt>
      <trkpt lat="49.989840" lon="7.852470">
        <time>2010-03-09T12:30:48Z</time>
      </trkpt>
      <trkpt lat="49.989840" lon="7.852470">
        <time>2010-03-09T12:30:52Z</time>
      </trkpt>
      <trkpt lat="49.989840" lon="7.852470">
        <time>2010-03-09T12:30:56Z</time>
      </trkpt>
      <trkpt lat="49.989840" lon="7.852470">
        <time>2010-03-09T12:31:10Z</time>
      </trkpt>
      <trkpt lat="49.989860" lon="7.852300">
        <time>2010-03-09T12:31:14Z</time>
      </trkpt>
      <trkpt lat="49.989860" lon="7.852300">
        <time>2010-03-09T12:31:22Z</time>
      </trkpt>
      <trkpt lat="49.989860" lon="7.852300">
        <time>2010-03-09T12:31:26Z</time>
      </trkpt>
      <trkpt lat="49.989860" lon="7.852300">
        <time>2010-03-09T12:31:36Z</time>
      </trkpt>
      <trkpt lat="49.989920" lon="7.852860">
        <time>2010-03-09T12:31:44Z</time>
      </trkpt>
      <trkpt lat="49.989920" lon="7.852860">
        <time>2010-03-09T12:31:48Z</time>
      </trkpt>
      <trkpt lat="49.989920" lon="7.852860">
        <time>2010-03-09T12:31:50Z</time>
      </trkpt>
      <trkpt lat="49.989920" lon="7.852860">
        <time>2010-03-09T12:31:56Z</time>
      </trkpt>
      <trkpt lat="49.990300" lon="7.852640">
        <time>2010-03-09T12:32:04Z</time>
      </trkpt>
      <trkpt lat="49.990340" lon="7.852620">
        <time>2010-03-09T12:32:08Z</time>
      </trkpt>
      <trkpt lat="49.990340" lon="7.852620">
        <time>2010-03-09T12:32:16Z</time>
      </trkpt>
      <trkpt lat="49.990340" lon="7.852620">
        <time>2010-03-09T12:32:20Z</time>
      </trkpt>
      <trkpt lat="49.990340" lon="7.852620">
        <time>2010-03-09T12:32:28Z</time>
      </trkpt>
      <trkpt lat="49.990380" lon="7.852560">
        <time>2010-03-09T12:32:30Z</time>
      </trkpt>
      <trkpt lat="49.990380" lon="7.852560">
        <time>2010-03-09T12:32:42Z</time>
      </trkpt>
      <trkpt lat="49.989990" lon="7.852580">
        <time>2010-03-09T12:32:50Z</time>
      </trkpt>
      <trkpt lat="49.989890" lon="7.852320">
        <time>2010-03-09T12:32:54Z</time>
      </trkpt>
      <trkpt lat="49.989850" lon="7.852190">
        <time>2010-03-09T12:33:02Z</time>
      </trkpt>
      <trkpt lat="49.989840" lon="7.852150">
        <time>2010-03-09T12:33:08Z</time>
      </trkpt>
      <trkpt lat="49.989830" lon="7.852070">
        <time>2010-03-09T12:33:12Z</time>
      </trkpt>
      <trkpt lat="49.989840" lon="7.852000">
        <time>2010-03-09T12:33:22Z</time>
      </trkpt>
      <trkpt lat="49.989840" lon="7.852000">
        <time>2010-03-09T12:33:26Z</time>
      </trkpt>
      <trkpt lat="49.989850" lon="7.851920">
        <time>2010-03-09T12:33:28Z</time>
      </trkpt>
      <trkpt lat="49.989900" lon="7.851790">
        <time>2010-03-09T12:33:42Z</time>
      </trkpt>
      <trkpt lat="49.989900" lon="7.851790">
        <time>2010-03-09T12:33:46Z</time>
      </trkpt>
      <trkpt lat="49.989960" lon="7.851660">
        <time>2010-03-09T12:33:50Z</time>
      </trkpt>
      <trkpt lat="49.990010" lon="7.851530">
        <time>2010-03-09T12:34:02Z</time>
      </trkpt>
      <trkpt lat="49.990010" lon="7.851530">
        <time>2010-03-09T12:34:06Z</time>
      </trkpt>
      <trkpt lat="49.990010" lon="7.851530">
        <time>2010-03-09T12:34:12Z</time>
      </trkpt>
      <trkpt lat="49.990010" lon="7.851530">
        <time>2010-03-09T12:34:16Z</time>
      </trkpt>
      <trkpt lat="49.990160" lon="7.851420">
        <time>2010-03-09T12:34:20Z</time>
      </trkpt>
      <trkpt lat="49.990230" lon="7.851400">
        <time>2010-03-09T12:34:28Z</time>
      </trkpt>
      <trkpt lat="49.990260" lon="7.851380">
        <time>2010-03-09T12:34:34Z</time>
      </trkpt>
      <trkpt lat="49.990380" lon="7.851290">
        <time>2010-03-09T12:34:42Z</time>
      </trkpt>
      <trkpt lat="49.990430" lon="7.851250">
        <time>2010-03-09T12:34:50Z</time>
      </trkpt>
      <trkpt lat="49.990450" lon="7.851230">
        <time>2010-03-09T12:34:58Z</time>
      </trkpt>
      <trkpt lat="49.990450" lon="7.851230">
        <time>2010-03-09T12:35:02Z</time>
      </trkpt>
      <trkpt lat="49.990450" lon="7.851230">
        <time>2010-03-09T12:35:06Z</time>
      </trkpt>
      <trkpt lat="49.990450" lon="7.851230">
        <time>2010-03-09T12:35:30Z</time>
      </trkpt>
      <trkpt lat="49.990630" lon="7.851040">
        <time>2010-03-09T12:35:34Z</time>
      </trkpt>
      <trkpt lat="49.990670" lon="7.851040">
        <time>2010-03-09T12:35:38Z</time>
      </trkpt>
      <trkpt lat="49.990700" lon="7.851060">
        <time>2010-03-09T12:35:42Z</time>
      </trkpt>
      <trkpt lat="49.990790" lon="7.851080">
        <time>2010-03-09T12:35:46Z</time>
      </trkpt>
      <trkpt lat="49.990790" lon="7.851080">
        <time>2010-03-09T12:35:54Z</time>
      </trkpt>
      <trkpt lat="49.990790" lon="7.851080">
        <time>2010-03-09T12:35:56Z</time>
      </trkpt>
      <trkpt lat="49.990810" lon="7.851080">
        <time>2010-03-09T12:35:58Z</time>
      </trkpt>
      <trkpt lat="49.990810" lon="7.851080">
        <time>2010-03-09T12:36:06Z</time>
      </trkpt>
      <trkpt lat="49.990960" lon="7.850970">
        <time>2010-03-09T12:36:12Z</time>
      </trkpt>
      <trkpt lat="49.990960" lon="7.850970">
        <time>2010-03-09T12:36:20Z</time>
      </trkpt>
      <trkpt lat="49.991070" lon="7.850840">
        <time>2010-03-09T12:36:24Z</time>
      </trkpt>
      <trkpt lat="49.991070" lon="7.850840">
        <time>2010-03-09T12:36:32Z</time>
      </trkpt>
      <trkpt lat="49.991180" lon="7.850760">
        <time>2010-03-09T12:36:36Z</time>
      </trkpt>
      <trkpt lat="49.991230" lon="7.850690">
        <time>2010-03-09T12:36:44Z</time>
      </trkpt>
      <trkpt lat="49.991230" lon="7.850690">
        <time>2010-03-09T12:36:48Z</time>
      </trkpt>
      <trkpt lat="49.991230" lon="7.850690">
        <time>2010-03-09T12:36:52Z</time>
      </trkpt>
      <trkpt lat="49.991230" lon="7.850690">
        <time>2010-03-09T12:36:56Z</time>
      </trkpt>
      <trkpt lat="49.991330" lon="7.850610">
        <time>2010-03-09T12:37:00Z</time>
      </trkpt>
      <trkpt lat="49.991330" lon="7.850610">
        <time>2010-03-09T12:37:08Z</time>
      </trkpt>
      <trkpt lat="49.991330" lon="7.850610">
        <time>2010-03-09T12:37:12Z</time>
      </trkpt>
      <trkpt lat="49.991330" lon="7.850610">
        <time>2010-03-09T12:37:24Z</time>
      </trkpt>
      <trkpt lat="49.991590" lon="7.850310">
        <time>2010-03-09T12:37:30Z</time>
      </trkpt>
      <trkpt lat="49.991630" lon="7.850260">
        <time>2010-03-09T12:37:36Z</time>
      </trkpt>
      <trkpt lat="49.991670" lon="7.850240">
        <time>2010-03-09T12:37:46Z</time>
      </trkpt>
      <trkpt lat="49.991670" lon="7.850240">
        <time>2010-03-09T12:37:50Z</time>
      </trkpt>
      <trkpt lat="49.991670" lon="7.850240">
        <time>2010-03-09T12:37:54Z</time>
      </trkpt>
      <trkpt lat="49.991670" lon="7.850240">
        <time>2010-03-09T12:37:58Z</time>
      </trkpt>
      <trkpt lat="49.991800" lon="7.850160">
        <time>2010-03-09T12:38:02Z</time>
      </trkpt>
      <trkpt lat="49.991800" lon="7.850160">
        <time>2010-03-09T12:38:10Z</time>
      </trkpt>
      <trkpt lat="49.991800" lon="7.850160">
        <time>2010-03-09T12:38:14Z</time>
      </trkpt>
      <trkpt lat="49.992100" lon="7.850090">
        <time>2010-03-09T12:38:20Z</time>
      </trkpt>
      <trkpt lat="49.992100" lon="7.850090">
        <time>2010-03-09T12:38:26Z</time>
      </trkpt>
      <trkpt lat="49.992100" lon="7.850090">
        <time>2010-03-09T12:38:30Z</time>
      </trkpt>
      <trkpt lat="49.992100" lon="7.850090">
        <time>2010-03-09T12:38:42Z</time>
      </trkpt>
      <trkpt lat="49.992330" lon="7.850010">
        <time>2010-03-09T12:38:46Z</time>
      </trkpt>
      <trkpt lat="49.992330" lon="7.850010">
        <time>2010-03-09T12:38:54Z</time>
      </trkpt>
      <trkpt lat="49.992470" lon="7.849960">
        <time>2010-03-09T12:38:58Z</time>
      </trkpt>
      <trkpt lat="49.992510" lon="7.849940">
        <time>2010-03-09T12:39:06Z</time>
      </trkpt>
      <trkpt lat="49.992610" lon="7.849920">
        <time>2010-03-09T12:39:10Z</time>
      </trkpt>
      <trkpt lat="49.992680" lon="7.849830">
        <time>2010-03-09T12:39:18Z</time>
      </trkpt>
      <trkpt lat="49.992720" lon="7.849770">
        <time>2010-03-09T12:39:28Z</time>
      </trkpt>
      <trkpt lat="49.992740" lon="7.849680">
        <time>2010-03-09T12:39:32Z</time>
      </trkpt>
      <trkpt lat="49.992800" lon="7.849660">
        <time>2010-03-09T12:39:36Z</time>
      </trkpt>
      <trkpt lat="49.992830" lon="7.849600">
        <time>2010-03-09T12:39:42Z</time>
      </trkpt>
      <trkpt lat="49.992930" lon="7.849450">
        <time>2010-03-09T12:39:58Z</time>
      </trkpt>
      <trkpt lat="49.992970" lon="7.849360">
        <time>2010-03-09T12:40:10Z</time>
      </trkpt>
      <trkpt lat="49.993000" lon="7.849280">
        <time>2010-03-09T12:40:14Z</time>
      </trkpt>
      <trkpt lat="49.993010" lon="7.849170">
        <time>2010-03-09T12:40:22Z</time>
      </trkpt>
      <trkpt lat="49.993010" lon="7.849080">
        <time>2010-03-09T12:40:32Z</time>
      </trkpt>
      <trkpt lat="49.993010" lon="7.848980">
        <time>2010-03-09T12:40:36Z</time>
      </trkpt>
      <trkpt lat="49.992970" lon="7.848910">
        <time>2010-03-09T12:40:46Z</time>
      </trkpt>
      <trkpt lat="49.992930" lon="7.848850">
        <time>2010-03-09T12:40:50Z</time>
      </trkpt>
      <trkpt lat="49.992850" lon="7.848780">
        <time>2010-03-09T12:41:00Z</time>
      </trkpt>
      <trkpt lat="49.992780" lon="7.848720">
        <time>2010-03-09T12:41:14Z</time>
      </trkpt>
      <trkpt lat="49.992730" lon="7.848630">
        <time>2010-03-09T12:41:18Z</time>
      </trkpt>
      <trkpt lat="49.992670" lon="7.848550">
        <time>2010-03-09T12:41:28Z</time>
      </trkpt>
      <trkpt lat="49.992650" lon="7.848480">
        <time>2010-03-09T12:41:38Z</time>
      </trkpt>
      <trkpt lat="49.992610" lon="7.848420">
        <time>2010-03-09T12:41:40Z</time>
      </trkpt>
      <trkpt lat="49.992540" lon="7.848330">
        <time>2010-03-09T12:41:48Z</time>
      </trkpt>
      <trkpt lat="49.992460" lon="7.848290">
        <time>2010-03-09T12:41:56Z</time>
      </trkpt>
      <trkpt lat="49.992200" lon="7.848160">
        <time>2010-03-09T12:42:24Z</time>
      </trkpt>
      <trkpt lat="49.992200" lon="7.848160">
        <time>2010-03-09T12:42:28Z</time>
      </trkpt>
      <trkpt lat="49.992200" lon="7.848160">
        <time>2010-03-09T12:42:34Z</time>
      </trkpt>
      <trkpt lat="49.992060" lon="7.848100">
        <time>2010-03-09T12:42:38Z</time>
      </trkpt>
      <trkpt lat="49.991970" lon="7.848010">
        <time>2010-03-09T12:42:48Z</time>
      </trkpt>
      <trkpt lat="49.991840" lon="7.847900">
        <time>2010-03-09T12:43:04Z</time>
      </trkpt>
      <trkpt lat="49.991840" lon="7.847900">
        <time>2010-03-09T12:43:08Z</time>
      </trkpt>
      <trkpt lat="49.991840" lon="7.847900">
        <time>2010-03-09T12:43:12Z</time>
      </trkpt>
      <trkpt lat="49.991790" lon="7.847750">
        <time>2010-03-09T12:43:16Z</time>
      </trkpt>
      <trkpt lat="49.991680" lon="7.847580">
        <time>2010-03-09T12:43:30Z</time>
      </trkpt>
      <trkpt lat="49.991610" lon="7.847560">
        <time>2010-03-09T12:43:40Z</time>
      </trkpt>
      <trkpt lat="49.991510" lon="7.847490">
        <time>2010-03-09T12:43:48Z</time>
      </trkpt>
      <trkpt lat="49.991450" lon="7.847410">
        <time>2010-03-09T12:43:54Z</time>
      </trkpt>
      <trkpt lat="49.991250" lon="7.847090">
        <time>2010-03-09T12:44:16Z</time>
      </trkpt>
      <trkpt lat="49.991210" lon="7.847040">
        <time>2010-03-09T12:44:24Z</time>
      </trkpt>
      <trkpt lat="49.991110" lon="7.846960">
        <time>2010-03-09T12:44:36Z</time>
      </trkpt>
      <trkpt lat="49.991000" lon="7.846830">
        <time>2010-03-09T12:44:48Z</time>
      </trkpt>
      <trkpt lat="49.990910" lon="7.846790">
        <time>2010-03-09T12:44:56Z</time>
      </trkpt>
      <trkpt lat="49.990810" lon="7.846700">
        <time>2010-03-09T12:45:06Z</time>
      </trkpt>
      <trkpt lat="49.990580" lon="7.846510">
        <time>2010-03-09T12:45:22Z</time>
      </trkpt>
      <trkpt lat="49.990580" lon="7.846510">
        <time>2010-03-09T12:45:26Z</time>
      </trkpt>
      <trkpt lat="49.990580" lon="7.846510">
        <time>2010-03-09T12:45:30Z</time>
      </trkpt>
      <trkpt lat="49.990580" lon="7.846510">
        <time>2010-03-09T12:45:54Z</time>
      </trkpt>
      <trkpt lat="49.990320" lon="7.846100">
        <time>2010-03-09T12:46:00Z</time>
      </trkpt>
      <trkpt lat="49.990280" lon="7.845970">
        <time>2010-03-09T12:46:06Z</time>
      </trkpt>
      <trkpt lat="49.990220" lon="7.845840">
        <time>2010-03-09T12:46:16Z</time>
      </trkpt>
      <trkpt lat="49.990180" lon="7.845820">
        <time>2010-03-09T12:46:24Z</time>
      </trkpt>
      <trkpt lat="49.990150" lon="7.845780">
        <time>2010-03-09T12:46:28Z</time>
      </trkpt>
      <trkpt lat="49.990140" lon="7.845740">
        <time>2010-03-09T12:46:32Z</time>
      </trkpt>
      <trkpt lat="49.990180" lon="7.845890">
        <time>2010-03-09T12:46:42Z</time>
      </trkpt>
      <trkpt lat="49.990180" lon="7.845890">
        <time>2010-03-09T12:46:44Z</time>
      </trkpt>
      <trkpt lat="49.990180" lon="7.845890">
        <time>2010-03-09T12:46:46Z</time>
      </trkpt>
      <trkpt lat="49.990180" lon="7.845890">
        <time>2010-03-09T12:47:14Z</time>
      </trkpt>
      <trkpt lat="49.989880" lon="7.845930">
        <time>2010-03-09T12:47:22Z</time>
      </trkpt>
      <trkpt lat="49.989630" lon="7.846250">
        <time>2010-03-09T12:47:30Z</time>
      </trkpt>
      <trkpt lat="49.989630" lon="7.846250">
        <time>2010-03-09T12:47:34Z</time>
      </trkpt>
      <trkpt lat="49.989630" lon="7.846250">
        <time>2010-03-09T12:47:38Z</time>
      </trkpt>
      <trkpt lat="49.989630" lon="7.846250">
        <time>2010-03-09T12:47:58Z</time>
      </trkpt>
      <trkpt lat="49.989430" lon="7.846210">
        <time>2010-03-09T12:48:02Z</time>
      </trkpt>
      <trkpt lat="49.989430" lon="7.846210">
        <time>2010-03-09T12:48:10Z</time>
      </trkpt>
      <trkpt lat="49.989430" lon="7.846210">
        <time>2010-03-09T12:48:14Z</time>
      </trkpt>
      <trkpt lat="49.989430" lon="7.846210">
        <time>2010-03-09T12:48:28Z</time>
      </trkpt>
      <trkpt lat="49.989120" lon="7.846160">
        <time>2010-03-09T12:48:34Z</time>
      </trkpt>
      <trkpt lat="49.988970" lon="7.846120">
        <time>2010-03-09T12:48:42Z</time>
      </trkpt>
      <trkpt lat="49.988970" lon="7.846120">
        <time>2010-03-09T12:48:46Z</time>
      </trkpt>
      <trkpt lat="49.988930" lon="7.845930">
        <time>2010-03-09T12:48:52Z</time>
      </trkpt>
      <trkpt lat="49.988930" lon="7.845930">
        <time>2010-03-09T12:49:00Z</time>
      </trkpt>
      <trkpt lat="49.988930" lon="7.845930">
        <time>2010-03-09T12:49:00Z</time>
      </trkpt>
      <trkpt lat="49.988800" lon="7.845670">
        <time>2010-03-09T12:49:12Z</time>
      </trkpt>
      <trkpt lat="49.988800" lon="7.845670">
        <time>2010-03-09T12:49:16Z</time>
      </trkpt>
      <trkpt lat="49.988800" lon="7.845670">
        <time>2010-03-09T12:49:20Z</time>
      </trkpt>
      <trkpt lat="49.988800" lon="7.845670">
        <time>2010-03-09T12:49:28Z</time>
      </trkpt>
      <trkpt lat="49.988540" lon="7.845350">
        <time>2010-03-09T12:49:34Z</time>
      </trkpt>
      <trkpt lat="49.988510" lon="7.845260">
        <time>2010-03-09T12:49:40Z</time>
      </trkpt>
      <trkpt lat="49.988460" lon="7.845070">
        <time>2010-03-09T12:49:56Z</time>
      </trkpt>
      <trkpt lat="49.988420" lon="7.844920">
        <time>2010-03-09T12:50:00Z</time>
      </trkpt>
      <trkpt lat="49.988380" lon="7.844790">
        <time>2010-03-09T12:50:08Z</time>
      </trkpt>
      <trkpt lat="49.988340" lon="7.844660">
        <time>2010-03-09T12:50:20Z</time>
      </trkpt>
      <trkpt lat="49.988340" lon="7.844660">
        <time>2010-03-09T12:50:24Z</time>
      </trkpt>
      <trkpt lat="49.988310" lon="7.844560">
        <time>2010-03-09T12:50:28Z</time>
      </trkpt>
      <trkpt lat="49.988240" lon="7.844320">
        <time>2010-03-09T12:50:44Z</time>
      </trkpt>
      <trkpt lat="49.988160" lon="7.844210">
        <time>2010-03-09T12:50:54Z</time>
      </trkpt>
      <trkpt lat="49.987970" lon="7.844000">
        <time>2010-03-09T12:51:18Z</time>
      </trkpt>
      <trkpt lat="49.987920" lon="7.843890">
        <time>2010-03-09T12:51:30Z</time>
      </trkpt>
      <trkpt lat="49.987920" lon="7.843890">
        <time>2010-03-09T12:51:34Z</time>
      </trkpt>
      <trkpt lat="49.987920" lon="7.843890">
        <time>2010-03-09T12:51:38Z</time>
      </trkpt>
      <trkpt lat="49.987830" lon="7.843610">
        <time>2010-03-09T12:51:42Z</time>
      </trkpt>
      <trkpt lat="49.987780" lon="7.843500">
        <time>2010-03-09T12:51:50Z</time>
      </trkpt>
      <trkpt lat="49.987630" lon="7.843290">
        <time>2010-03-09T12:52:08Z</time>
      </trkpt>
      <trkpt lat="49.987470" lon="7.843100">
        <time>2010-03-09T12:52:28Z</time>
      </trkpt>
      <trkpt lat="49.987470" lon="7.843100">
        <time>2010-03-09T12:52:32Z</time>
      </trkpt>
      <trkpt lat="49.987370" lon="7.843030">
        <time>2010-03-09T12:52:36Z</time>
      </trkpt>
      <trkpt lat="49.987240" lon="7.842950">
        <time>2010-03-09T12:52:50Z</time>
      </trkpt>
      <trkpt lat="49.987170" lon="7.842950">
        <time>2010-03-09T12:52:58Z</time>
      </trkpt>
      <trkpt lat="49.987140" lon="7.842950">
        <time>2010-03-09T12:53:04Z</time>
      </trkpt>
      <trkpt lat="49.987140" lon="7.842950">
        <time>2010-03-09T12:53:12Z</time>
      </trkpt>
      <trkpt lat="49.987040" lon="7.842900">
        <time>2010-03-09T12:53:16Z</time>
      </trkpt>
      <trkpt lat="49.987050" lon="7.842880">
        <time>2010-03-09T12:53:20Z</time>
      </trkpt>
      <trkpt lat="49.987050" lon="7.842860">
        <time>2010-03-09T12:53:24Z</time>
      </trkpt>
      <trkpt lat="49.987050" lon="7.842860">
        <time>2010-03-09T12:53:28Z</time>
      </trkpt>
      <trkpt lat="49.987050" lon="7.842860">
        <time>2010-03-09T12:53:32Z</time>
      </trkpt>
      <trkpt lat="49.987080" lon="7.842730">
        <time>2010-03-09T12:53:36Z</time>
      </trkpt>
      <trkpt lat="49.987080" lon="7.842730">
        <time>2010-03-09T12:53:44Z</time>
      </trkpt>
      <trkpt lat="49.987080" lon="7.842730">
        <time>2010-03-09T12:53:48Z</time>
      </trkpt>
      <trkpt lat="49.987080" lon="7.842730">
        <time>2010-03-09T12:53:52Z</time>
      </trkpt>
      <trkpt lat="49.986980" lon="7.842750">
        <time>2010-03-09T12:53:56Z</time>
      </trkpt>
      <trkpt lat="49.986930" lon="7.842770">
        <time>2010-03-09T12:54:06Z</time>
      </trkpt>
      <trkpt lat="49.986880" lon="7.842770">
        <time>2010-03-09T12:54:10Z</time>
      </trkpt>
      <trkpt lat="49.986850" lon="7.842750">
        <time>2010-03-09T12:54:18Z</time>
      </trkpt>
      <trkpt lat="49.986770" lon="7.842690">
        <time>2010-03-09T12:54:22Z</time>
      </trkpt>
      <trkpt lat="49.986770" lon="7.842690">
        <time>2010-03-09T12:54:30Z</time>
      </trkpt>
      <trkpt lat="49.986690" lon="7.842500">
        <time>2010-03-09T12:54:34Z</time>
      </trkpt>
      <trkpt lat="49.986690" lon="7.842500">
        <time>2010-03-09T12:54:42Z</time>
      </trkpt>
      <trkpt lat="49.986690" lon="7.842500">
        <time>2010-03-09T12:54:46Z</time>
      </trkpt>
      <trkpt lat="49.986610" lon="7.842170">
        <time>2010-03-09T12:54:50Z</time>
      </trkpt>
      <trkpt lat="49.986550" lon="7.842000">
        <time>2010-03-09T12:54:58Z</time>
      </trkpt>
      <trkpt lat="49.986550" lon="7.842000">
        <time>2010-03-09T12:55:02Z</time>
      </trkpt>
      <trkpt lat="49.986550" lon="7.842000">
        <time>2010-03-09T12:55:06Z</time>
      </trkpt>
      <trkpt lat="49.986550" lon="7.842000">
        <time>2010-03-09T12:55:10Z</time>
      </trkpt>
      <trkpt lat="49.986500" lon="7.841870">
        <time>2010-03-09T12:55:14Z</time>
      </trkpt>
      <trkpt lat="49.986490" lon="7.841810">
        <time>2010-03-09T12:55:22Z</time>
      </trkpt>
      <trkpt lat="49.986490" lon="7.841810">
        <time>2010-03-09T12:55:28Z</time>
      </trkpt>
      <trkpt lat="49.986490" lon="7.841810">
        <time>2010-03-09T12:55:30Z</time>
      </trkpt>
      <trkpt lat="49.986490" lon="7.841810">
        <time>2010-03-09T12:55:32Z</time>
      </trkpt>
      <trkpt lat="49.986440" lon="7.841660">
        <time>2010-03-09T12:55:36Z</time>
      </trkpt>
      <trkpt lat="49.986430" lon="7.841570">
        <time>2010-03-09T12:55:44Z</time>
      </trkpt>
      <trkpt lat="49.986430" lon="7.841570">
        <time>2010-03-09T12:55:48Z</time>
      </trkpt>
      <trkpt lat="49.986450" lon="7.841530">
        <time>2010-03-09T12:55:52Z</time>
      </trkpt>
      <trkpt lat="49.986450" lon="7.841530">
        <time>2010-03-09T12:56:00Z</time>
      </trkpt>
      <trkpt lat="49.986450" lon="7.841530">
        <time>2010-03-09T12:56:06Z</time>
      </trkpt>
    </trkseg>
    <trkpt lat="49.986140" lon="7.841900">
      <time>2010-03-09T12:56:28Z</time>
    </trkpt>
    <trkseg>
      <trkpt lat="49.986140" lon="7.841890">
        <time>2010-03-09T12:56:06Z</time>
      </trkpt>
      <trkpt lat="49.986370" lon="7.841680">
        <time>2010-03-09T12:56:12Z</time>
      </trkpt>
      <trkpt lat="49.986470" lon="7.841660">
        <time>2010-03-09T12:56:20Z</time>
      </trkpt>
      <trkpt lat="49.986470" lon="7.841660">
        <time>2010-03-09T12:56:24Z</time>
      </trkpt>
    </trkseg>
    <trkpt lat="49.986600" lon="7.841580">
      <time>2010-03-09T12:57:36Z</time>
    </trkpt>
    <trkseg>
      <trkpt lat="49.986590" lon="7.841570">
        <time>2010-03-09T12:56:24Z</time>
      </trkpt>
      <trkpt lat="49.986310" lon="7.841010">
        <time>2010-03-09T12:57:22Z</time>
      </trkpt>
      <trkpt lat="49.986450" lon="7.840560">
        <time>2010-03-09T12:57:28Z</time>
      </trkpt>
      <trkpt lat="49.986430" lon="7.840540">
        <time>2010-03-09T12:57:36Z</time>
      </trkpt>
      <trkpt lat="49.986430" lon="7.840540">
        <time>2010-03-09T12:57:40Z</time>
      </trkpt>
      <trkpt lat="49.986430" lon="7.840540">
        <time>2010-03-09T12:57:44Z</time>
      </trkpt>
      <trkpt lat="49.986430" lon="7.840540">
        <time>2010-03-09T12:58:04Z</time>
      </trkpt>
      <trkpt lat="49.986460" lon="7.840070">
        <time>2010-03-09T12:58:12Z</time>
      </trkpt>
      <trkpt lat="49.986460" lon="7.840070">
        <time>2010-03-09T12:58:16Z</time>
      </trkpt>
      <trkpt lat="49.986460" lon="7.840070">
        <time>2010-03-09T12:58:20Z</time>
      </trkpt>
      <trkpt lat="49.986460" lon="7.840070">
        <time>2010-03-09T12:58:28Z</time>
      </trkpt>
      <trkpt lat="49.986620" lon="7.839730">
        <time>2010-03-09T12:58:34Z</time>
      </trkpt>
      <trkpt lat="49.986620" lon="7.839730">
        <time>2010-03-09T12:58:42Z</time>
      </trkpt>
      <trkpt lat="49.986600" lon="7.839560">
        <time>2010-03-09T12:58:46Z</time>
      </trkpt>
      <trkpt lat="49.986490" lon="7.839190">
        <time>2010-03-09T12:58:58Z</time>
      </trkpt>
      <trkpt lat="49.986490" lon="7.839190">
        <time>2010-03-09T12:59:02Z</time>
      </trkpt>
      <trkpt lat="49.986490" lon="7.839190">
        <time>2010-03-09T12:59:06Z</time>
      </trkpt>
      <trkpt lat="49.986490" lon="7.839190">
        <time>2010-03-09T12:59:22Z</time>
      </trkpt>
      <trkpt lat="49.986290" lon="7.838870">
        <time>2010-03-09T12:59:28Z</time>
      </trkpt>
      <trkpt lat="49.986290" lon="7.838870">
        <time>2010-03-09T12:59:36Z</time>
      </trkpt>
      <trkpt lat="49.986300" lon="7.838680">
        <time>2010-03-09T12:59:42Z</time>
      </trkpt>
      <trkpt lat="49.986310" lon="7.838480">
        <time>2010-03-09T12:59:52Z</time>
      </trkpt>
      <trkpt lat="49.986310" lon="7.838480">
        <time>2010-03-09T12:59:56Z</time>
      </trkpt>
      <trkpt lat="49.986310" lon="7.838290">
        <time>2010-03-09T13:00:00Z</time>
      </trkpt>
      <trkpt lat="49.986260" lon="7.838200">
        <time>2010-03-09T13:00:08Z</time>
      </trkpt>
      <trkpt lat="49.986240" lon="7.838160">
        <time>2010-03-09T13:00:16Z</time>
      </trkpt>
      <trkpt lat="49.986240" lon="7.838160">
        <time>2010-03-09T13:00:20Z</time>
      </trkpt>
      <trkpt lat="49.986240" lon="7.838160">
        <time>2010-03-09T13:00:24Z</time>
      </trkpt>
      <trkpt lat="49.986240" lon="7.838160">
        <time>2010-03-09T13:00:28Z</time>
      </trkpt>
      <trkpt lat="49.986160" lon="7.837900">
        <time>2010-03-09T13:00:32Z</time>
      </trkpt>
      <trkpt lat="49.986160" lon="7.837900">
        <time>2010-03-09T13:00:42Z</time>
      </trkpt>
      <trkpt lat="49.986110" lon="7.837650">
        <time>2010-03-09T13:00:46Z</time>
      </trkpt>
      <trkpt lat="49.986140" lon="7.837410">
        <time>2010-03-09T13:00:54Z</time>
      </trkpt>
      <trkpt lat="49.986160" lon="7.837110">
        <time>2010-03-09T13:01:08Z</time>
      </trkpt>
      <trkpt lat="49.986150" lon="7.836940">
        <time>2010-03-09T13:01:20Z</time>
      </trkpt>
      <trkpt lat="49.986110" lon="7.836810">
        <time>2010-03-09T13:01:34Z</time>
      </trkpt>
      <trkpt lat="49.986110" lon="7.836810">
        <time>2010-03-09T13:01:38Z</time>
      </trkpt>
      <trkpt lat="49.986060" lon="7.836660">
        <time>2010-03-09T13:01:42Z</time>
      </trkpt>
      <trkpt lat="49.986000" lon="7.836470">
        <time>2010-03-09T13:01:56Z</time>
      </trkpt>
      <trkpt lat="49.986000" lon="7.836470">
        <time>2010-03-09T13:02:00Z</time>
      </trkpt>
      <trkpt lat="49.985920" lon="7.836320">
        <time>2010-03-09T13:02:04Z</time>
      </trkpt>
      <trkpt lat="49.985880" lon="7.836230">
        <time>2010-03-09T13:02:14Z</time>
      </trkpt>
      <trkpt lat="49.985840" lon="7.836080">
        <time>2010-03-09T13:02:18Z</time>
      </trkpt>
      <trkpt lat="49.985840" lon="7.835910">
        <time>2010-03-09T13:02:28Z</time>
      </trkpt>
      <trkpt lat="49.985850" lon="7.835860">
        <time>2010-03-09T13:02:34Z</time>
      </trkpt>
      <trkpt lat="49.985860" lon="7.835760">
        <time>2010-03-09T13:02:36Z</time>
      </trkpt>
      <trkpt lat="49.985880" lon="7.835670">
        <time>2010-03-09T13:02:46Z</time>
      </trkpt>
      <trkpt lat="49.985880" lon="7.835670">
        <time>2010-03-09T13:02:50Z</time>
      </trkpt>
      <trkpt lat="49.985880" lon="7.835670">
        <time>2010-03-09T13:02:54Z</time>
      </trkpt>
      <trkpt lat="49.985880" lon="7.835670">
        <time>2010-03-09T13:03:14Z</time>
      </trkpt>
      <trkpt lat="49.985910" lon="7.835370">
        <time>2010-03-09T13:03:18Z</time>
      </trkpt>
      <trkpt lat="49.985910" lon="7.835370">
        <time>2010-03-09T13:03:26Z</time>
      </trkpt>
      <trkpt lat="49.985910" lon="7.835370">
        <time>2010-03-09T13:03:30Z</time>
      </trkpt>
      <trkpt lat="49.985910" lon="7.835200">
        <time>2010-03-09T13:03:34Z</time>
      </trkpt>
      <trkpt lat="49.985910" lon="7.835140">
        <time>2010-03-09T13:03:42Z</time>
      </trkpt>
      <trkpt lat="49.985910" lon="7.835140">
        <time>2010-03-09T13:03:46Z</time>
      </trkpt>
      <trkpt lat="49.985910" lon="7.835140">
        <time>2010-03-09T13:03:50Z</time>
      </trkpt>
      <trkpt lat="49.985910" lon="7.834960">
        <time>2010-03-09T13:03:54Z</time>
      </trkpt>
      <trkpt lat="49.985870" lon="7.834810">
        <time>2010-03-09T13:04:02Z</time>
      </trkpt>
      <trkpt lat="49.985770" lon="7.834660">
        <time>2010-03-09T13:04:12Z</time>
      </trkpt>
      <trkpt lat="49.985770" lon="7.834660">
        <time>2010-03-09T13:04:16Z</time>
      </trkpt>
      <trkpt lat="49.985770" lon="7.834660">
        <time>2010-03-09T13:04:20Z</time>
      </trkpt>
      <trkpt lat="49.985700" lon="7.834580">
        <time>2010-03-09T13:04:24Z</time>
      </trkpt>
      <trkpt lat="49.985670" lon="7.834600">
        <time>2010-03-09T13:04:28Z</time>
      </trkpt>
      <trkpt lat="49.985670" lon="7.834600">
        <time>2010-03-09T13:04:32Z</time>
      </trkpt>
      <trkpt lat="49.985620" lon="7.834620">
        <time>2010-03-09T13:04:34Z</time>
      </trkpt>
      <trkpt lat="49.985620" lon="7.834620">
        <time>2010-03-09T13:04:46Z</time>
      </trkpt>
      <trkpt lat="49.985620" lon="7.834620">
        <time>2010-03-09T13:04:50Z</time>
      </trkpt>
      <trkpt lat="49.985550" lon="7.834530">
        <time>2010-03-09T13:04:54Z</time>
      </trkpt>
      <trkpt lat="49.985530" lon="7.834490">
        <time>2010-03-09T13:05:02Z</time>
      </trkpt>
      <trkpt lat="49.985470" lon="7.834280">
        <time>2010-03-09T13:05:06Z</time>
      </trkpt>
      <trkpt lat="49.985420" lon="7.834210">
        <time>2010-03-09T13:05:14Z</time>
      </trkpt>
      <trkpt lat="49.985370" lon="7.834150">
        <time>2010-03-09T13:05:18Z</time>
      </trkpt>
      <trkpt lat="49.985370" lon="7.834150">
        <time>2010-03-09T13:05:26Z</time>
      </trkpt>
      <trkpt lat="49.985370" lon="7.834150">
        <time>2010-03-09T13:05:28Z</time>
      </trkpt>
      <trkpt lat="49.985300" lon="7.833980">
        <time>2010-03-09T13:05:32Z</time>
      </trkpt>
      <trkpt lat="49.985250" lon="7.833870">
        <time>2010-03-09T13:05:40Z</time>
      </trkpt>
      <trkpt lat="49.985210" lon="7.833740">
        <time>2010-03-09T13:05:52Z</time>
      </trkpt>
      <trkpt lat="49.985210" lon="7.833740">
        <time>2010-03-09T13:05:56Z</time>
      </trkpt>
      <trkpt lat="49.985170" lon="7.833570">
        <time>2010-03-09T13:06:00Z</time>
      </trkpt>
      <trkpt lat="49.985130" lon="7.833180">
        <time>2010-03-09T13:06:16Z</time>
      </trkpt>
      <trkpt lat="49.985130" lon="7.833180">
        <time>2010-03-09T13:06:20Z</time>
      </trkpt>
      <trkpt lat="49.985100" lon="7.833030">
        <time>2010-03-09T13:06:24Z</time>
      </trkpt>
      <trkpt lat="49.985070" lon="7.832970">
        <time>2010-03-09T13:06:32Z</time>
      </trkpt>
      <trkpt lat="49.985020" lon="7.832860">
        <time>2010-03-09T13:06:36Z</time>
      </trkpt>
      <trkpt lat="49.984920" lon="7.832770">
        <time>2010-03-09T13:06:42Z</time>
      </trkpt>
      <trkpt lat="49.984880" lon="7.832650">
        <time>2010-03-09T13:06:50Z</time>
      </trkpt>
      <trkpt lat="49.984880" lon="7.832650">
        <time>2010-03-09T13:06:54Z</time>
      </trkpt>
      <trkpt lat="49.984840" lon="7.832520">
        <time>2010-03-09T13:06:58Z</time>
      </trkpt>
      <trkpt lat="49.984820" lon="7.832410">
        <time>2010-03-09T13:07:08Z</time>
      </trkpt>
      <trkpt lat="49.984770" lon="7.832370">
        <time>2010-03-09T13:07:12Z</time>
      </trkpt>
      <trkpt lat="49.984720" lon="7.832350">
        <time>2010-03-09T13:07:16Z</time>
      </trkpt>
      <trkpt lat="49.984550" lon="7.832350">
        <time>2010-03-09T13:07:28Z</time>
      </trkpt>
      <trkpt lat="49.984550" lon="7.832350">
        <time>2010-03-09T13:07:32Z</time>
      </trkpt>
      <trkpt lat="49.984550" lon="7.832350">
        <time>2010-03-09T13:07:36Z</time>
      </trkpt>
      <trkpt lat="49.984550" lon="7.832350">
        <time>2010-03-09T13:07:44Z</time>
      </trkpt>
      <trkpt lat="49.984310" lon="7.832070">
        <time>2010-03-09T13:07:50Z</time>
      </trkpt>
      <trkpt lat="49.984310" lon="7.832070">
        <time>2010-03-09T13:07:58Z</time>
      </trkpt>
      <trkpt lat="49.984230" lon="7.831830">
        <time>2010-03-09T13:08:02Z</time>
      </trkpt>
      <trkpt lat="49.984180" lon="7.831620">
        <time>2010-03-09T13:08:10Z</time>
      </trkpt>
      <trkpt lat="49.984160" lon="7.831570">
        <time>2010-03-09T13:08:16Z</time>
      </trkpt>
      <trkpt lat="49.984140" lon="7.831470">
        <time>2010-03-09T13:08:22Z</time>
      </trkpt>
      <trkpt lat="49.984110" lon="7.831360">
        <time>2010-03-09T13:08:32Z</time>
      </trkpt>
      <trkpt lat="49.984110" lon="7.831320">
        <time>2010-03-09T13:08:34Z</time>
      </trkpt>
      <trkpt lat="49.984100" lon="7.831270">
        <time>2010-03-09T13:08:42Z</time>
      </trkpt>
      <trkpt lat="49.984030" lon="7.831210">
        <time>2010-03-09T13:08:46Z</time>
      </trkpt>
      <trkpt lat="49.983980" lon="7.831120">
        <time>2010-03-09T13:08:54Z</time>
      </trkpt>
      <trkpt lat="49.983930" lon="7.831040">
        <time>2010-03-09T13:09:06Z</time>
      </trkpt>
      <trkpt lat="49.983850" lon="7.830840">
        <time>2010-03-09T13:09:10Z</time>
      </trkpt>
      <trkpt lat="49.983780" lon="7.830670">
        <time>2010-03-09T13:09:18Z</time>
      </trkpt>
      <trkpt lat="49.983700" lon="7.830480">
        <time>2010-03-09T13:09:30Z</time>
      </trkpt>
      <trkpt lat="49.983550" lon="7.830220">
        <time>2010-03-09T13:09:50Z</time>
      </trkpt>
      <trkpt lat="49.983450" lon="7.830140">
        <time>2010-03-09T13:10:00Z</time>
      </trkpt>
      <trkpt lat="49.983370" lon="7.830010">
        <time>2010-03-09T13:10:12Z</time>
      </trkpt>
      <trkpt lat="49.983230" lon="7.829880">
        <time>2010-03-09T13:10:26Z</time>
      </trkpt>
      <trkpt lat="49.983100" lon="7.829710">
        <time>2010-03-09T13:10:40Z</time>
      </trkpt>
      <trkpt lat="49.982990" lon="7.829620">
        <time>2010-03-09T13:10:50Z</time>
      </trkpt>
      <trkpt lat="49.982900" lon="7.829490">
        <time>2010-03-09T13:11:00Z</time>
      </trkpt>
      <trkpt lat="49.982860" lon="7.829360">
        <time>2010-03-09T13:11:06Z</time>
      </trkpt>
      <trkpt lat="49.982840" lon="7.829190">
        <time>2010-03-09T13:11:18Z</time>
      </trkpt>
      <trkpt lat="49.982840" lon="7.829190">
        <time>2010-03-09T13:11:22Z</time>
      </trkpt>
      <trkpt lat="49.982840" lon="7.829190">
        <time>2010-03-09T13:11:26Z</time>
      </trkpt>
      <trkpt lat="49.982820" lon="7.829040">
        <time>2010-03-09T13:11:30Z</time>
      </trkpt>
      <trkpt lat="49.982830" lon="7.828810">
        <time>2010-03-09T13:11:42Z</time>
      </trkpt>
      <trkpt lat="49.982790" lon="7.828610">
        <time>2010-03-09T13:11:52Z</time>
      </trkpt>
      <trkpt lat="49.982770" lon="7.828570">
        <time>2010-03-09T13:11:58Z</time>
      </trkpt>
      <trkpt lat="49.982730" lon="7.828460">
        <time>2010-03-09T13:12:00Z</time>
      </trkpt>
      <trkpt lat="49.982700" lon="7.828270">
        <time>2010-03-09T13:12:14Z</time>
      </trkpt>
      <trkpt lat="49.982690" lon="7.828180">
        <time>2010-03-09T13:12:16Z</time>
      </trkpt>
      <trkpt lat="49.982640" lon="7.828100">
        <time>2010-03-09T13:12:24Z</time>
      </trkpt>
      <trkpt lat="49.982620" lon="7.828080">
        <time>2010-03-09T13:12:30Z</time>
      </trkpt>
      <trkpt lat="49.982620" lon="7.828080">
        <time>2010-03-09T13:12:35Z</time>
      </trkpt>
      <trkpt lat="49.982620" lon="7.828080">
        <time>2010-03-09T13:12:36Z</time>
      </trkpt>
    </trkseg>
    <trkpt lat="49.982620" lon="7.828080">
      <time>2010-03-09T13:12:32Z</time>
    </trkpt>
    <trkpt lat="49.982600" lon="7.828020">
      <time>2010-03-09T13:13:24Z</time>
    </trkpt>
    <trkseg>
      <trkpt lat="49.982600" lon="7.827990">
        <time>2010-03-09T13:12:36Z</time>
      </trkpt>
      <trkpt lat="49.982430" lon="7.827630">
        <time>2010-03-09T13:13:10Z</time>
      </trkpt>
      <trkpt lat="49.982430" lon="7.827630">
        <time>2010-03-09T13:13:18Z</time>
      </trkpt>
      <trkpt lat="49.982430" lon="7.827630">
        <time>2010-03-09T13:13:22Z</time>
      </trkpt>
      <trkpt lat="49.982430" lon="7.827630">
        <time>2010-03-09T13:13:26Z</time>
      </trkpt>
      <trkpt lat="49.982470" lon="7.827200">
        <time>2010-03-09T13:13:32Z</time>
      </trkpt>
      <trkpt lat="49.982470" lon="7.827200">
        <time>2010-03-09T13:13:40Z</time>
      </trkpt>
      <trkpt lat="49.982470" lon="7.827200">
        <time>2010-03-09T13:13:46Z</time>
      </trkpt>
      <trkpt lat="49.982470" lon="7.827200">
        <time>2010-03-09T13:15:26Z</time>
      </trkpt>
      <trkpt lat="49.982200" lon="7.827170">
        <time>2010-03-09T13:15:34Z</time>
      </trkpt>
      <trkpt lat="49.982200" lon="7.827170">
        <time>2010-03-09T13:15:38Z</time>
      </trkpt>
      <trkpt lat="49.982200" lon="7.827170">
        <time>2010-03-09T13:15:42Z</time>
      </trkpt>
      <trkpt lat="49.982200" lon="7.827170">
        <time>2010-03-09T13:15:54Z</time>
      </trkpt>
      <trkpt lat="49.981750" lon="7.827320">
        <time>2010-03-09T13:16:00Z</time>
      </trkpt>
      <trkpt lat="49.981610" lon="7.827410">
        <time>2010-03-09T13:16:08Z</time>
      </trkpt>
      <trkpt lat="49.981540" lon="7.827410">
        <time>2010-03-09T13:16:14Z</time>
      </trkpt>
      <trkpt lat="49.981540" lon="7.827410">
        <time>2010-03-09T13:16:22Z</time>
      </trkpt>
      <trkpt lat="49.981540" lon="7.827410">
        <time>2010-03-09T13:16:26Z</time>
      </trkpt>
      <trkpt lat="49.981440" lon="7.827370">
        <time>2010-03-09T13:16:30Z</time>
      </trkpt>
      <trkpt lat="49.981400" lon="7.827390">
        <time>2010-03-09T13:16:34Z</time>
      </trkpt>
      <trkpt lat="49.981390" lon="7.827410">
        <time>2010-03-09T13:16:40Z</time>
      </trkpt>
      <trkpt lat="49.981390" lon="7.827410">
        <time>2010-03-09T13:16:44Z</time>
      </trkpt>
      <trkpt lat="49.981300" lon="7.827470">
        <time>2010-03-09T13:16:50Z</time>
      </trkpt>
      <trkpt lat="49.981240" lon="7.827520">
        <time>2010-03-09T13:17:00Z</time>
      </trkpt>
      <trkpt lat="49.981240" lon="7.827520">
        <time>2010-03-09T13:17:04Z</time>
      </trkpt>
      <trkpt lat="49.981240" lon="7.827520">
        <time>2010-03-09T13:17:08Z</time>
      </trkpt>
      <trkpt lat="49.981130" lon="7.827630">
        <time>2010-03-09T13:17:12Z</time>
      </trkpt>
      <trkpt lat="49.981070" lon="7.827650">
        <time>2010-03-09T13:17:20Z</time>
      </trkpt>
      <trkpt lat="49.981070" lon="7.827650">
        <time>2010-03-09T13:17:26Z</time>
      </trkpt>
      <trkpt lat="49.981070" lon="7.827650">
        <time>2010-03-09T13:17:28Z</time>
      </trkpt>
      <trkpt lat="49.981070" lon="7.827650">
        <time>2010-03-09T13:17:48Z</time>
      </trkpt>
      <trkpt lat="49.981050" lon="7.827840">
        <time>2010-03-09T13:17:54Z</time>
      </trkpt>
      <trkpt lat="49.981050" lon="7.827840">
        <time>2010-03-09T13:18:00Z</time>
      </trkpt>
      <trkpt lat="49.981050" lon="7.827840">
        <time>2010-03-09T13:18:02Z</time>
      </trkpt>
      <trkpt lat="49.981020" lon="7.827800">
        <time>2010-03-09T13:18:06Z</time>
      </trkpt>
      <trkpt lat="49.980950" lon="7.827710">
        <time>2010-03-09T13:18:12Z</time>
      </trkpt>
      <trkpt lat="49.980900" lon="7.827690">
        <time>2010-03-09T13:18:16Z</time>
      </trkpt>
      <trkpt lat="49.980790" lon="7.827650">
        <time>2010-03-09T13:18:28Z</time>
      </trkpt>
      <trkpt lat="49.980790" lon="7.827650">
        <time>2010-03-09T13:18:32Z</time>
      </trkpt>
      <trkpt lat="49.980790" lon="7.827650">
        <time>2010-03-09T13:18:36Z</time>
      </trkpt>
      <trkpt lat="49.980790" lon="7.827650">
        <time>2010-03-09T13:18:40Z</time>
      </trkpt>
      <trkpt lat="49.980660" lon="7.827690">
        <time>2010-03-09T13:18:46Z</time>
      </trkpt>
      <trkpt lat="49.980660" lon="7.827690">
        <time>2010-03-09T13:18:54Z</time>
      </trkpt>
      <trkpt lat="49.980290" lon="7.827280">
        <time>2010-03-09T13:19:00Z</time>
      </trkpt>
      <trkpt lat="49.980290" lon="7.827280">
        <time>2010-03-09T13:19:08Z</time>
      </trkpt>
      <trkpt lat="49.980290" lon="7.827280">
        <time>2010-03-09T13:19:12Z</time>
      </trkpt>
      <trkpt lat="49.980290" lon="7.827280">
        <time>2010-03-09T13:19:32Z</time>
      </trkpt>
      <trkpt lat="49.980370" lon="7.827200">
        <time>2010-03-09T13:19:36Z</time>
      </trkpt>
      <trkpt lat="49.980370" lon="7.827200">
        <time>2010-03-09T13:19:44Z</time>
      </trkpt>
      <trkpt lat="49.980370" lon="7.827200">
        <time>2010-03-09T13:19:48Z</time>
      </trkpt>
      <trkpt lat="49.980380" lon="7.827200">
        <time>2010-03-09T13:19:50Z</time>
      </trkpt>
      <trkpt lat="49.980290" lon="7.827280">
        <time>2010-03-09T13:20:00Z</time>
      </trkpt>
      <trkpt lat="49.980290" lon="7.827280">
        <time>2010-03-09T13:20:04Z</time>
      </trkpt>
      <trkpt lat="49.980290" lon="7.827280">
        <time>2010-03-09T13:20:08Z</time>
      </trkpt>
      <trkpt lat="49.980290" lon="7.827280">
        <time>2010-03-09T13:20:28Z</time>
      </trkpt>
      <trkpt lat="49.980100" lon="7.827690">
        <time>2010-03-09T13:20:34Z</time>
      </trkpt>
      <trkpt lat="49.980100" lon="7.827690">
        <time>2010-03-09T13:20:40Z</time>
      </trkpt>
      <trkpt lat="49.980040" lon="7.827670">
        <time>2010-03-09T13:20:44Z</time>
      </trkpt>
      <trkpt lat="49.980040" lon="7.827670">
        <time>2010-03-09T13:20:50Z</time>
      </trkpt>
      <trkpt lat="49.980220" lon="7.827670">
        <time>2010-03-09T13:20:54Z</time>
      </trkpt>
      <trkpt lat="49.980280" lon="7.827630">
        <time>2010-03-09T13:21:02Z</time>
      </trkpt>
      <trkpt lat="49.980220" lon="7.827600">
        <time>2010-03-09T13:21:06Z</time>
      </trkpt>
      <trkpt lat="49.980170" lon="7.827540">
        <time>2010-03-09T13:21:10Z</time>
      </trkpt>
      <trkpt lat="49.980060" lon="7.827390">
        <time>2010-03-09T13:21:24Z</time>
      </trkpt>
      <trkpt lat="49.980010" lon="7.827390">
        <time>2010-03-09T13:21:32Z</time>
      </trkpt>
      <trkpt lat="49.979930" lon="7.827410">
        <time>2010-03-09T13:21:46Z</time>
      </trkpt>
      <trkpt lat="49.979930" lon="7.827410">
        <time>2010-03-09T13:21:50Z</time>
      </trkpt>
      <trkpt lat="49.979890" lon="7.827470">
        <time>2010-03-09T13:21:54Z</time>
      </trkpt>
      <trkpt lat="49.979850" lon="7.827540">
        <time>2010-03-09T13:22:00Z</time>
      </trkpt>
      <trkpt lat="49.979690" lon="7.827750">
        <time>2010-03-09T13:22:06Z</time>
      </trkpt>
      <trkpt lat="49.979690" lon="7.827750">
        <time>2010-03-09T13:22:14Z</time>
      </trkpt>
      <trkpt lat="49.979690" lon="7.827750">
        <time>2010-03-09T13:22:18Z</time>
      </trkpt>
      <trkpt lat="49.979440" lon="7.827690">
        <time>2010-03-09T13:22:22Z</time>
      </trkpt>
      <trkpt lat="49.979440" lon="7.827690">
        <time>2010-03-09T13:22:30Z</time>
      </trkpt>
      <trkpt lat="49.979440" lon="7.827690">
        <time>2010-03-09T13:22:34Z</time>
      </trkpt>
      <trkpt lat="49.979440" lon="7.827690">
        <time>2010-03-09T13:22:42Z</time>
      </trkpt>
      <trkpt lat="49.979280" lon="7.827800">
        <time>2010-03-09T13:22:48Z</time>
      </trkpt>
      <trkpt lat="49.979170" lon="7.827840">
        <time>2010-03-09T13:22:58Z</time>
      </trkpt>
      <trkpt lat="49.979080" lon="7.827840">
        <time>2010-03-09T13:23:06Z</time>
      </trkpt>
      <trkpt lat="49.979020" lon="7.827840">
        <time>2010-03-09T13:23:16Z</time>
      </trkpt>
      <trkpt lat="49.978890" lon="7.827860">
        <time>2010-03-09T13:23:20Z</time>
      </trkpt>
      <trkpt lat="49.978850" lon="7.827840">
        <time>2010-03-09T13:23:26Z</time>
      </trkpt>
      <trkpt lat="49.978810" lon="7.827840">
        <time>2010-03-09T13:23:32Z</time>
      </trkpt>
      <trkpt lat="49.978680" lon="7.827840">
        <time>2010-03-09T13:23:48Z</time>
      </trkpt>
      <trkpt lat="49.978650" lon="7.827840">
        <time>2010-03-09T13:23:50Z</time>
      </trkpt>
      <trkpt lat="49.978500" lon="7.827800">
        <time>2010-03-09T13:24:02Z</time>
      </trkpt>
      <trkpt lat="49.978450" lon="7.827820">
        <time>2010-03-09T13:24:06Z</time>
      </trkpt>
      <trkpt lat="49.978410" lon="7.827880">
        <time>2010-03-09T13:24:12Z</time>
      </trkpt>
      <trkpt lat="49.978310" lon="7.827900">
        <time>2010-03-09T13:24:22Z</time>
      </trkpt>
      <trkpt lat="49.978270" lon="7.827900">
        <time>2010-03-09T13:24:24Z</time>
      </trkpt>
      <trkpt lat="49.978270" lon="7.827900">
        <time>2010-03-09T13:24:30Z</time>
      </trkpt>
      <trkpt lat="49.978260" lon="7.827900">
        <time>2010-03-09T13:24:32Z</time>
      </trkpt>
      <trkpt lat="49.978270" lon="7.827910">
        <time>2010-03-09T13:24:38Z</time>
      </trkpt>
      <trkpt lat="49.978270" lon="7.827910">
        <time>2010-03-09T13:24:39Z</time>
      </trkpt>
    </trkseg>
    <trkpt lat="49.978270" lon="7.827910">
      <time>2010-03-09T13:24:44Z</time>
    </trkpt>
    <trkpt lat="49.978260" lon="7.827540">
      <time>2010-03-09T13:24:58Z</time>
    </trkpt>
    <trkseg>
      <trkpt lat="49.978560" lon="7.827690">
        <time>2010-03-09T13:24:39Z</time>
      </trkpt>
      <trkpt lat="49.978560" lon="7.827690">
        <time>2010-03-09T13:24:45Z</time>
      </trkpt>
      <trkpt lat="49.978560" lon="7.827690">
        <time>2010-03-09T13:24:49Z</time>
      </trkpt>
      <trkpt lat="49.978560" lon="7.827690">
        <time>2010-03-09T13:24:53Z</time>
      </trkpt>
      <trkpt lat="49.978110" lon="7.827750">
        <time>2010-03-09T13:25:01Z</time>
      </trkpt>
      <trkpt lat="49.978040" lon="7.827840">
        <time>2010-03-09T13:25:05Z</time>
      </trkpt>
      <trkpt lat="49.977940" lon="7.827880">
        <time>2010-03-09T13:25:07Z</time>
      </trkpt>
      <trkpt lat="49.977810" lon="7.827930">
        <time>2010-03-09T13:25:17Z</time>
      </trkpt>
      <trkpt lat="49.977790" lon="7.827930">
        <time>2010-03-09T13:25:23Z</time>
      </trkpt>
      <trkpt lat="49.977790" lon="7.827930">
        <time>2010-03-09T13:25:35Z</time>
      </trkpt>
      <trkpt lat="49.977790" lon="7.827930">
        <time>2010-03-09T13:25:39Z</time>
      </trkpt>
      <trkpt lat="49.977790" lon="7.827930">
        <time>2010-03-09T13:25:43Z</time>
      </trkpt>
      <trkpt lat="49.977680" lon="7.828160">
        <time>2010-03-09T13:25:49Z</time>
      </trkpt>
      <trkpt lat="49.977600" lon="7.828290">
        <time>2010-03-09T13:25:59Z</time>
      </trkpt>
      <trkpt lat="49.977600" lon="7.828290">
        <time>2010-03-09T13:26:03Z</time>
      </trkpt>
      <trkpt lat="49.977500" lon="7.828350">
        <time>2010-03-09T13:26:07Z</time>
      </trkpt>
      <trkpt lat="49.977370" lon="7.828480">
        <time>2010-03-09T13:26:17Z</time>
      </trkpt>
      <trkpt lat="49.977340" lon="7.828500">
        <time>2010-03-09T13:26:23Z</time>
      </trkpt>
      <trkpt lat="49.977270" lon="7.828630">
        <time>2010-03-09T13:26:27Z</time>
      </trkpt>
      <trkpt lat="49.977240" lon="7.828680">
        <time>2010-03-09T13:26:35Z</time>
      </trkpt>
      <trkpt lat="49.977240" lon="7.828680">
        <time>2010-03-09T13:26:39Z</time>
      </trkpt>
      <trkpt lat="49.977240" lon="7.828680">
        <time>2010-03-09T13:26:43Z</time>
      </trkpt>
      <trkpt lat="49.977140" lon="7.828830">
        <time>2010-03-09T13:26:47Z</time>
      </trkpt>
      <trkpt lat="49.977080" lon="7.828870">
        <time>2010-03-09T13:26:53Z</time>
      </trkpt>
      <trkpt lat="49.977050" lon="7.828910">
        <time>2010-03-09T13:26:59Z</time>
      </trkpt>
      <trkpt lat="49.976970" lon="7.828980">
        <time>2010-03-09T13:27:07Z</time>
      </trkpt>
      <trkpt lat="49.976900" lon="7.829040">
        <time>2010-03-09T13:27:11Z</time>
      </trkpt>
      <trkpt lat="49.976880" lon="7.829060">
        <time>2010-03-09T13:27:19Z</time>
      </trkpt>
      <trkpt lat="49.976740" lon="7.829190">
        <time>2010-03-09T13:27:23Z</time>
      </trkpt>
      <trkpt lat="49.976660" lon="7.829280">
        <time>2010-03-09T13:27:31Z</time>
      </trkpt>
      <trkpt lat="49.976660" lon="7.829280">
        <time>2010-03-09T13:27:35Z</time>
      </trkpt>
      <trkpt lat="49.976540" lon="7.829430">
        <time>2010-03-09T13:27:39Z</time>
      </trkpt>
      <trkpt lat="49.976470" lon="7.829470">
        <time>2010-03-09T13:27:47Z</time>
      </trkpt>
      <trkpt lat="49.976360" lon="7.829580">
        <time>2010-03-09T13:27:59Z</time>
      </trkpt>
      <trkpt lat="49.976290" lon="7.829710">
        <time>2010-03-09T13:28:09Z</time>
      </trkpt>
      <trkpt lat="49.976170" lon="7.829810">
        <time>2010-03-09T13:28:21Z</time>
      </trkpt>
      <trkpt lat="49.976040" lon="7.829880">
        <time>2010-03-09T13:28:33Z</time>
      </trkpt>
      <trkpt lat="49.975950" lon="7.829920">
        <time>2010-03-09T13:28:45Z</time>
      </trkpt>
      <trkpt lat="49.975950" lon="7.829920">
        <time>2010-03-09T13:28:49Z</time>
      </trkpt>
      <trkpt lat="49.975950" lon="7.829920">
        <time>2010-03-09T13:28:53Z</time>
      </trkpt>
      <trkpt lat="49.975870" lon="7.829940">
        <time>2010-03-09T13:28:57Z</time>
      </trkpt>
      <trkpt lat="49.975700" lon="7.830030">
        <time>2010-03-09T13:29:11Z</time>
      </trkpt>
      <trkpt lat="49.975700" lon="7.830030">
        <time>2010-03-09T13:29:15Z</time>
      </trkpt>
      <trkpt lat="49.975700" lon="7.830030">
        <time>2010-03-09T13:29:19Z</time>
      </trkpt>
      <trkpt lat="49.975700" lon="7.830030">
        <time>2010-03-09T13:29:23Z</time>
      </trkpt>
      <trkpt lat="49.975610" lon="7.830140">
        <time>2010-03-09T13:29:27Z</time>
      </trkpt>
      <trkpt lat="49.975490" lon="7.830310">
        <time>2010-03-09T13:29:41Z</time>
      </trkpt>
      <trkpt lat="49.975460" lon="7.830350">
        <time>2010-03-09T13:29:49Z</time>
      </trkpt>
      <trkpt lat="49.975420" lon="7.830410">
        <time>2010-03-09T13:29:53Z</time>
      </trkpt>
      <trkpt lat="49.975360" lon="7.830440">
        <time>2010-03-09T13:29:57Z</time>
      </trkpt>
      <trkpt lat="49.975190" lon="7.830520">
        <time>2010-03-09T13:30:05Z</time>
      </trkpt>
      <trkpt lat="49.975090" lon="7.830630">
        <time>2010-03-09T13:30:11Z</time>
      </trkpt>
      <trkpt lat="49.974920" lon="7.830780">
        <time>2010-03-09T13:30:23Z</time>
      </trkpt>
      <trkpt lat="49.974860" lon="7.830800">
        <time>2010-03-09T13:30:31Z</time>
      </trkpt>
      <trkpt lat="49.974720" lon="7.830870">
        <time>2010-03-09T13:30:47Z</time>
      </trkpt>
      <trkpt lat="49.974570" lon="7.830930">
        <time>2010-03-09T13:31:01Z</time>
      </trkpt>
      <trkpt lat="49.974450" lon="7.831020">
        <time>2010-03-09T13:31:15Z</time>
      </trkpt>
      <trkpt lat="49.974450" lon="7.831020">
        <time>2010-03-09T13:31:19Z</time>
      </trkpt>
      <trkpt lat="49.974420" lon="7.831060">
        <time>2010-03-09T13:31:23Z</time>
      </trkpt>
      <trkpt lat="49.974380" lon="7.831170">
        <time>2010-03-09T13:31:41Z</time>
      </trkpt>
      <trkpt lat="49.974380" lon="7.831170">
        <time>2010-03-09T13:31:43Z</time>
      </trkpt>
      <trkpt lat="49.974330" lon="7.831230">
        <time>2010-03-09T13:31:45Z</time>
      </trkpt>
      <trkpt lat="49.974320" lon="7.831270">
        <time>2010-03-09T13:31:55Z</time>
      </trkpt>
      <trkpt lat="49.974320" lon="7.831270">
        <time>2010-03-09T13:31:57Z</time>
      </trkpt>
      <trkpt lat="49.974320" lon="7.831270">
        <time>2010-03-09T13:31:59Z</time>
      </trkpt>
      <trkpt lat="49.974320" lon="7.831270">
        <time>2010-03-09T13:32:05Z</time>
      </trkpt>
      <trkpt lat="49.974190" lon="7.831590">
        <time>2010-03-09T13:32:09Z</time>
      </trkpt>
      <trkpt lat="49.974130" lon="7.831680">
        <time>2010-03-09T13:32:17Z</time>
      </trkpt>
      <trkpt lat="49.974070" lon="7.831810">
        <time>2010-03-09T13:32:21Z</time>
      </trkpt>
      <trkpt lat="49.974010" lon="7.831940">
        <time>2010-03-09T13:32:29Z</time>
      </trkpt>
      <trkpt lat="49.973890" lon="7.832110">
        <time>2010-03-09T13:32:43Z</time>
      </trkpt>
      <trkpt lat="49.973880" lon="7.832130">
        <time>2010-03-09T13:32:49Z</time>
      </trkpt>
      <trkpt lat="49.973880" lon="7.832130">
        <time>2010-03-09T13:32:53Z</time>
      </trkpt>
      <trkpt lat="49.973880" lon="7.832130">
        <time>2010-03-09T13:32:55Z</time>
      </trkpt>
      <trkpt lat="49.973820" lon="7.832260">
        <time>2010-03-09T13:32:59Z</time>
      </trkpt>
      <trkpt lat="49.973750" lon="7.832370">
        <time>2010-03-09T13:33:11Z</time>
      </trkpt>
      <trkpt lat="49.973690" lon="7.832430">
        <time>2010-03-09T13:33:13Z</time>
      </trkpt>
      <trkpt lat="49.973590" lon="7.832560">
        <time>2010-03-09T13:33:21Z</time>
      </trkpt>
      <trkpt lat="49.973580" lon="7.832580">
        <time>2010-03-09T13:33:25Z</time>
      </trkpt>
      <trkpt lat="49.973580" lon="7.832580">
        <time>2010-03-09T13:33:31Z</time>
      </trkpt>
      <trkpt lat="49.973580" lon="7.832580">
        <time>2010-03-09T13:33:33Z</time>
      </trkpt>
      <trkpt lat="49.973510" lon="7.832730">
        <time>2010-03-09T13:33:37Z</time>
      </trkpt>
      <trkpt lat="49.973480" lon="7.832770">
        <time>2010-03-09T13:33:45Z</time>
      </trkpt>
      <trkpt lat="49.973430" lon="7.832840">
        <time>2010-03-09T13:33:47Z</time>
      </trkpt>
      <trkpt lat="49.973410" lon="7.832860">
        <time>2010-03-09T13:33:49Z</time>
      </trkpt>
      <trkpt lat="49.973390" lon="7.832950">
        <time>2010-03-09T13:33:53Z</time>
      </trkpt>
      <trkpt lat="49.973290" lon="7.833160">
        <time>2010-03-09T13:34:05Z</time>
      </trkpt>
      <trkpt lat="49.973270" lon="7.833230">
        <time>2010-03-09T13:34:13Z</time>
      </trkpt>
      <trkpt lat="49.973270" lon="7.833230">
        <time>2010-03-09T13:34:17Z</time>
      </trkpt>
      <trkpt lat="49.973200" lon="7.833420">
        <time>2010-03-09T13:34:21Z</time>
      </trkpt>
      <trkpt lat="49.973130" lon="7.833480">
        <time>2010-03-09T13:34:27Z</time>
      </trkpt>
      <trkpt lat="49.973100" lon="7.833530">
        <time>2010-03-09T13:34:33Z</time>
      </trkpt>
      <trkpt lat="49.973050" lon="7.833630">
        <time>2010-03-09T13:34:39Z</time>
      </trkpt>
      <trkpt lat="49.973040" lon="7.833680">
        <time>2010-03-09T13:34:45Z</time>
      </trkpt>
      <trkpt lat="49.972970" lon="7.833760">
        <time>2010-03-09T13:34:49Z</time>
      </trkpt>
      <trkpt lat="49.972950" lon="7.833800">
        <time>2010-03-09T13:34:51Z</time>
      </trkpt>
      <trkpt lat="49.972790" lon="7.834040">
        <time>2010-03-09T13:35:05Z</time>
      </trkpt>
      <trkpt lat="49.972790" lon="7.834040">
        <time>2010-03-09T13:35:09Z</time>
      </trkpt>
      <trkpt lat="49.972700" lon="7.834130">
        <time>2010-03-09T13:35:13Z</time>
      </trkpt>
      <trkpt lat="49.972680" lon="7.834150">
        <time>2010-03-09T13:35:21Z</time>
      </trkpt>
      <trkpt lat="49.972540" lon="7.834280">
        <time>2010-03-09T13:35:25Z</time>
      </trkpt>
      <trkpt lat="49.972470" lon="7.834350">
        <time>2010-03-09T13:35:29Z</time>
      </trkpt>
      <trkpt lat="49.972210" lon="7.834470">
        <time>2010-03-09T13:35:43Z</time>
      </trkpt>
      <trkpt lat="49.972170" lon="7.834510">
        <time>2010-03-09T13:35:47Z</time>
      </trkpt>
      <trkpt lat="49.972240" lon="7.834510">
        <time>2010-03-09T13:35:55Z</time>
      </trkpt>
      <trkpt lat="49.972050" lon="7.834660">
        <time>2010-03-09T13:36:01Z</time>
      </trkpt>
      <trkpt lat="49.971920" lon="7.834730">
        <time>2010-03-09T13:36:09Z</time>
      </trkpt>
      <trkpt lat="49.971680" lon="7.834810">
        <time>2010-03-09T13:36:25Z</time>
      </trkpt>
      <trkpt lat="49.971580" lon="7.834900">
        <time>2010-03-09T13:36:35Z</time>
      </trkpt>
      <trkpt lat="49.971470" lon="7.835010">
        <time>2010-03-09T13:36:49Z</time>
      </trkpt>
      <trkpt lat="49.971380" lon="7.835100">
        <time>2010-03-09T13:36:59Z</time>
      </trkpt>
      <trkpt lat="49.971150" lon="7.835180">
        <time>2010-03-09T13:37:15Z</time>
      </trkpt>
      <trkpt lat="49.971150" lon="7.835180">
        <time>2010-03-09T13:37:19Z</time>
      </trkpt>
      <trkpt lat="49.971150" lon="7.835180">
        <time>2010-03-09T13:37:23Z</time>
      </trkpt>
      <trkpt lat="49.971170" lon="7.835010">
        <time>2010-03-09T13:37:27Z</time>
      </trkpt>
      <trkpt lat="49.971120" lon="7.834900">
        <time>2010-03-09T13:37:35Z</time>
      </trkpt>
      <trkpt lat="49.971120" lon="7.834900">
        <time>2010-03-09T13:37:39Z</time>
      </trkpt>
      <trkpt lat="49.971070" lon="7.834790">
        <time>2010-03-09T13:37:43Z</time>
      </trkpt>
      <trkpt lat="49.971060" lon="7.834750">
        <time>2010-03-09T13:37:51Z</time>
      </trkpt>
      <trkpt lat="49.970990" lon="7.834620">
        <time>2010-03-09T13:37:55Z</time>
      </trkpt>
      <trkpt lat="49.970910" lon="7.834530">
        <time>2010-03-09T13:38:03Z</time>
      </trkpt>
      <trkpt lat="49.970770" lon="7.834340">
        <time>2010-03-09T13:38:21Z</time>
      </trkpt>
      <trkpt lat="49.970750" lon="7.834280">
        <time>2010-03-09T13:38:31Z</time>
      </trkpt>
      <trkpt lat="49.970720" lon="7.834210">
        <time>2010-03-09T13:38:35Z</time>
      </trkpt>
      <trkpt lat="49.970640" lon="7.834170">
        <time>2010-03-09T13:38:43Z</time>
      </trkpt>
      <trkpt lat="49.970540" lon="7.834170">
        <time>2010-03-09T13:38:51Z</time>
      </trkpt>
      <trkpt lat="49.970350" lon="7.834170">
        <time>2010-03-09T13:39:07Z</time>
      </trkpt>
      <trkpt lat="49.970280" lon="7.834130">
        <time>2010-03-09T13:39:15Z</time>
      </trkpt>
      <trkpt lat="49.970200" lon="7.834130">
        <time>2010-03-09T13:39:19Z</time>
      </trkpt>
      <trkpt lat="49.970140" lon="7.834080">
        <time>2010-03-09T13:39:27Z</time>
      </trkpt>
      <trkpt lat="49.970170" lon="7.834060">
        <time>2010-03-09T13:39:33Z</time>
      </trkpt>
      <trkpt lat="49.970220" lon="7.834060">
        <time>2010-03-09T13:39:41Z</time>
      </trkpt>
      <trkpt lat="49.970310" lon="7.834040">
        <time>2010-03-09T13:39:45Z</time>
      </trkpt>
      <trkpt lat="49.970390" lon="7.834080">
        <time>2010-03-09T13:39:51Z</time>
      </trkpt>
      <trkpt lat="49.970560" lon="7.834150">
        <time>2010-03-09T13:40:05Z</time>
      </trkpt>
      <trkpt lat="49.970720" lon="7.834170">
        <time>2010-03-09T13:40:15Z</time>
      </trkpt>
      <trkpt lat="49.970890" lon="7.834190">
        <time>2010-03-09T13:40:29Z</time>
      </trkpt>
      <trkpt lat="49.970910" lon="7.834220">
        <time>2010-03-09T13:40:33Z</time>
      </trkpt>
      <trkpt lat="49.970910" lon="7.834220">
        <time>2010-03-09T13:40:34Z</time>
      </trkpt>
    </trkseg>
    <trkpt lat="49.970880" lon="7.834240">
      <time>2010-03-09T13:41:51Z</time>
    </trkpt>
    <trkpt lat="49.970810" lon="7.834300">
      <time>2010-03-09T13:44:25Z</time>
    </trkpt>
    <trkpt lat="49.970730" lon="7.834480">
      <time>2010-03-09T13:45:51Z</time>
    </trkpt>
    <trkpt lat="49.970850" lon="7.834260">
      <time>2010-03-09T13:54:11Z</time>
    </trkpt>
    <trkpt lat="49.970950" lon="7.834220">
      <time>2010-03-09T13:58:13Z</time>
    </trkpt>
    <trkpt lat="49.970840" lon="7.834320">
      <time>2010-03-09T13:59:23Z</time>
    </trkpt>
    <trkpt lat="49.970680" lon="7.834390">
      <time>2010-03-09T13:59:27Z</time>
    </trkpt>
    <trkpt lat="49.971050" lon="7.834110">
      <time>2010-03-09T14:00:27Z</time>
    </trkpt>
    <trkpt lat="49.970810" lon="7.834150">
      <time>2010-03-09T14:03:41Z</time>
    </trkpt>
    <trkpt lat="49.971200" lon="7.834130">
      <time>2010-03-09T14:04:29Z</time>
    </trkpt>
    <trkpt lat="49.970940" lon="7.834280">
      <time>2010-03-09T14:07:25Z</time>
    </trkpt>
    <trkpt lat="49.970760" lon="7.834220">
      <time>2010-03-09T14:07:59Z</time>
    </trkpt>
    <trkpt lat="49.970860" lon="7.834150">
      <time>2010-03-09T14:12:01Z</time>
    </trkpt>
    <trkseg>
      <trkpt lat="49.970500" lon="7.834340">
        <time>2010-03-09T13:40:34Z</time>
      </trkpt>
      <trkpt lat="49.970500" lon="7.834340">
        <time>2010-03-09T13:40:43Z</time>
      </trkpt>
      <trkpt lat="49.970500" lon="7.834340">
        <time>2010-03-09T13:40:47Z</time>
      </trkpt>
      <trkpt lat="49.970500" lon="7.834340">
        <time>2010-03-09T13:41:03Z</time>
      </trkpt>
      <trkpt lat="49.970650" lon="7.834470">
        <time>2010-03-09T13:41:07Z</time>
      </trkpt>
      <trkpt lat="49.970650" lon="7.834470">
        <time>2010-03-09T13:41:15Z</time>
      </trkpt>
      <trkpt lat="49.970650" lon="7.834470">
        <time>2010-03-09T13:41:17Z</time>
      </trkpt>
      <trkpt lat="49.970660" lon="7.834490">
        <time>2010-03-09T13:41:19Z</time>
      </trkpt>
      <trkpt lat="49.970660" lon="7.834490">
        <time>2010-03-09T13:41:25Z</time>
      </trkpt>
      <trkpt lat="49.970850" lon="7.834660">
        <time>2010-03-09T13:41:29Z</time>
      </trkpt>
      <trkpt lat="49.970850" lon="7.834660">
        <time>2010-03-09T13:41:37Z</time>
      </trkpt>
      <trkpt lat="49.970980" lon="7.834830">
        <time>2010-03-09T13:41:41Z</time>
      </trkpt>
      <trkpt lat="49.971010" lon="7.834880">
        <time>2010-03-09T13:41:49Z</time>
      </trkpt>
      <trkpt lat="49.971050" lon="7.834920">
        <time>2010-03-09T13:41:51Z</time>
      </trkpt>
      <trkpt lat="49.971070" lon="7.834960">
        <time>2010-03-09T13:41:53Z</time>
      </trkpt>
      <trkpt lat="49.971120" lon="7.835030">
        <time>2010-03-09T13:42:01Z</time>
      </trkpt>
      <trkpt lat="49.971130" lon="7.835160">
        <time>2010-03-09T13:42:09Z</time>
      </trkpt>
      <trkpt lat="49.971120" lon="7.835180">
        <time>2010-03-09T13:42:15Z</time>
      </trkpt>
      <trkpt lat="49.971120" lon="7.835180">
        <time>2010-03-09T13:42:19Z</time>
      </trkpt>
      <trkpt lat="49.971060" lon="7.835290">
        <time>2010-03-09T13:42:23Z</time>
      </trkpt>
      <trkpt lat="49.971060" lon="7.835290">
        <time>2010-03-09T13:42:31Z</time>
      </trkpt>
      <trkpt lat="49.971060" lon="7.835290">
        <time>2010-03-09T13:42:33Z</time>
      </trkpt>
      <trkpt lat="49.971060" lon="7.835290">
        <time>2010-03-09T13:42:37Z</time>
      </trkpt>
      <trkpt lat="49.970810" lon="7.835410">
        <time>2010-03-09T13:42:45Z</time>
      </trkpt>
      <trkpt lat="49.970820" lon="7.835420">
        <time>2010-03-09T13:42:45Z</time>
      </trkpt>
      <trkpt lat="49.970740" lon="7.835840">
        <time>2010-03-09T13:43:03Z</time>
      </trkpt>
      <trkpt lat="49.970740" lon="7.835840">
        <time>2010-03-09T13:43:05Z</time>
      </trkpt>
      <trkpt lat="49.970740" lon="7.835840">
        <time>2010-03-09T13:43:07Z</time>
      </trkpt>
      <trkpt lat="49.970740" lon="7.835840">
        <time>2010-03-09T13:43:19Z</time>
      </trkpt>
      <trkpt lat="49.970530" lon="7.836080">
        <time>2010-03-09T13:43:25Z</time>
      </trkpt>
      <trkpt lat="49.970530" lon="7.836080">
        <time>2010-03-09T13:43:33Z</time>
      </trkpt>
      <trkpt lat="49.970490" lon="7.836360">
        <time>2010-03-09T13:43:39Z</time>
      </trkpt>
      <trkpt lat="49.970460" lon="7.836510">
        <time>2010-03-09T13:43:45Z</time>
      </trkpt>
      <trkpt lat="49.970620" lon="7.836640">
        <time>2010-03-09T13:43:59Z</time>
      </trkpt>
      <trkpt lat="49.970620" lon="7.836640">
        <time>2010-03-09T13:44:01Z</time>
      </trkpt>
      <trkpt lat="49.970400" lon="7.836890">
        <time>2010-03-09T13:44:09Z</time>
      </trkpt>
      <trkpt lat="49.970400" lon="7.836890">
        <time>2010-03-09T13:44:13Z</time>
      </trkpt>
      <trkpt lat="49.970400" lon="7.837200">
        <time>2010-03-09T13:44:17Z</time>
      </trkpt>
      <trkpt lat="49.970350" lon="7.837280">
        <time>2010-03-09T13:44:25Z</time>
      </trkpt>
      <trkpt lat="49.970330" lon="7.837370">
        <time>2010-03-09T13:44:31Z</time>
      </trkpt>
      <trkpt lat="49.970030" lon="7.837840">
        <time>2010-03-09T13:44:51Z</time>
      </trkpt>
      <trkpt lat="49.970030" lon="7.837840">
        <time>2010-03-09T13:44:53Z</time>
      </trkpt>
      <trkpt lat="49.970030" lon="7.837840">
        <time>2010-03-09T13:44:55Z</time>
      </trkpt>
      <trkpt lat="49.970030" lon="7.837840">
        <time>2010-03-09T13:45:09Z</time>
      </trkpt>
      <trkpt lat="49.970040" lon="7.837840">
        <time>2010-03-09T13:45:09Z</time>
      </trkpt>
      <trkpt lat="49.969850" lon="7.838330">
        <time>2010-03-09T13:45:25Z</time>
      </trkpt>
      <trkpt lat="49.969850" lon="7.838330">
        <time>2010-03-09T13:45:27Z</time>
      </trkpt>
      <trkpt lat="49.969850" lon="7.838330">
        <time>2010-03-09T13:45:29Z</time>
      </trkpt>
      <trkpt lat="49.969850" lon="7.838330">
        <time>2010-03-09T13:45:33Z</time>
      </trkpt>
      <trkpt lat="49.969940" lon="7.838740">
        <time>2010-03-09T13:45:39Z</time>
      </trkpt>
      <trkpt lat="49.969900" lon="7.838830">
        <time>2010-03-09T13:45:45Z</time>
      </trkpt>
      <trkpt lat="49.969690" lon="7.839210">
        <time>2010-03-09T13:46:11Z</time>
      </trkpt>
      <trkpt lat="49.969620" lon="7.839280">
        <time>2010-03-09T13:46:13Z</time>
      </trkpt>
      <trkpt lat="49.969480" lon="7.839410">
        <time>2010-03-09T13:46:23Z</time>
      </trkpt>
      <trkpt lat="49.969470" lon="7.839510">
        <time>2010-03-09T13:46:29Z</time>
      </trkpt>
      <trkpt lat="49.969450" lon="7.839620">
        <time>2010-03-09T13:46:39Z</time>
      </trkpt>
      <trkpt lat="49.969450" lon="7.839620">
        <time>2010-03-09T13:46:41Z</time>
      </trkpt>
      <trkpt lat="49.969440" lon="7.839770">
        <time>2010-03-09T13:46:45Z</time>
      </trkpt>
      <trkpt lat="49.969410" lon="7.839980">
        <time>2010-03-09T13:46:57Z</time>
      </trkpt>
      <trkpt lat="49.969330" lon="7.840460">
        <time>2010-03-09T13:47:21Z</time>
      </trkpt>
      <trkpt lat="49.969360" lon="7.840630">
        <time>2010-03-09T13:47:29Z</time>
      </trkpt>
      <trkpt lat="49.969350" lon="7.840990">
        <time>2010-03-09T13:47:47Z</time>
      </trkpt>
      <trkpt lat="49.969290" lon="7.841340">
        <time>2010-03-09T13:48:05Z</time>
      </trkpt>
      <trkpt lat="49.969240" lon="7.841420">
        <time>2010-03-09T13:48:09Z</time>
      </trkpt>
      <trkpt lat="49.969190" lon="7.841510">
        <time>2010-03-09T13:48:17Z</time>
      </trkpt>
      <trkpt lat="49.969140" lon="7.841620">
        <time>2010-03-09T13:48:23Z</time>
      </trkpt>
      <trkpt lat="49.969030" lon="7.841740">
        <time>2010-03-09T13:48:35Z</time>
      </trkpt>
      <trkpt lat="49.968960" lon="7.841890">
        <time>2010-03-09T13:48:43Z</time>
      </trkpt>
      <trkpt lat="49.968890" lon="7.842070">
        <time>2010-03-09T13:48:55Z</time>
      </trkpt>
      <trkpt lat="49.968860" lon="7.842130">
        <time>2010-03-09T13:48:57Z</time>
      </trkpt>
      <trkpt lat="49.968830" lon="7.842300">
        <time>2010-03-09T13:49:05Z</time>
      </trkpt>
      <trkpt lat="49.968800" lon="7.842600">
        <time>2010-03-09T13:49:19Z</time>
      </trkpt>
      <trkpt lat="49.968800" lon="7.842690">
        <time>2010-03-09T13:49:27Z</time>
      </trkpt>
      <trkpt lat="49.968800" lon="7.842880">
        <time>2010-03-09T13:49:31Z</time>
      </trkpt>
      <trkpt lat="49.968800" lon="7.843050">
        <time>2010-03-09T13:49:39Z</time>
      </trkpt>
      <trkpt lat="49.968800" lon="7.843050">
        <time>2010-03-09T13:49:43Z</time>
      </trkpt>
      <trkpt lat="49.968800" lon="7.843050">
        <time>2010-03-09T13:49:45Z</time>
      </trkpt>
      <trkpt lat="49.968840" lon="7.843200">
        <time>2010-03-09T13:49:49Z</time>
      </trkpt>
      <trkpt lat="49.968860" lon="7.843350">
        <time>2010-03-09T13:49:55Z</time>
      </trkpt>
      <trkpt lat="49.968860" lon="7.843530">
        <time>2010-03-09T13:50:05Z</time>
      </trkpt>
      <trkpt lat="49.968860" lon="7.843530">
        <time>2010-03-09T13:50:07Z</time>
      </trkpt>
      <trkpt lat="49.968860" lon="7.843530">
        <time>2010-03-09T13:50:09Z</time>
      </trkpt>
      <trkpt lat="49.968860" lon="7.843680">
        <time>2010-03-09T13:50:13Z</time>
      </trkpt>
      <trkpt lat="49.968870" lon="7.843910">
        <time>2010-03-09T13:50:21Z</time>
      </trkpt>
      <trkpt lat="49.968830" lon="7.844190">
        <time>2010-03-09T13:50:31Z</time>
      </trkpt>
      <trkpt lat="49.968830" lon="7.844190">
        <time>2010-03-09T13:50:33Z</time>
      </trkpt>
      <trkpt lat="49.968840" lon="7.844230">
        <time>2010-03-09T13:50:35Z</time>
      </trkpt>
      <trkpt lat="49.968840" lon="7.844230">
        <time>2010-03-09T13:50:47Z</time>
      </trkpt>
      <trkpt lat="49.968820" lon="7.844250">
        <time>2010-03-09T13:50:51Z</time>
      </trkpt>
      <trkpt lat="49.968820" lon="7.844250">
        <time>2010-03-09T13:50:59Z</time>
      </trkpt>
      <trkpt lat="49.968800" lon="7.844680">
        <time>2010-03-09T13:51:07Z</time>
      </trkpt>
      <trkpt lat="49.968800" lon="7.844680">
        <time>2010-03-09T13:51:11Z</time>
      </trkpt>
      <trkpt lat="49.968820" lon="7.845200">
        <time>2010-03-09T13:51:17Z</time>
      </trkpt>
      <trkpt lat="49.968780" lon="7.845410">
        <time>2010-03-09T13:51:23Z</time>
      </trkpt>
      <trkpt lat="49.968640" lon="7.845520">
        <time>2010-03-09T13:51:31Z</time>
      </trkpt>
      <trkpt lat="49.968620" lon="7.845560">
        <time>2010-03-09T13:51:37Z</time>
      </trkpt>
      <trkpt lat="49.968530" lon="7.845690">
        <time>2010-03-09T13:51:41Z</time>
      </trkpt>
      <trkpt lat="49.968430" lon="7.845930">
        <time>2010-03-09T13:51:55Z</time>
      </trkpt>
      <trkpt lat="49.968410" lon="7.846120">
        <time>2010-03-09T13:52:05Z</time>
      </trkpt>
      <trkpt lat="49.968420" lon="7.846190">
        <time>2010-03-09T13:52:13Z</time>
      </trkpt>
      <trkpt lat="49.968420" lon="7.846190">
        <time>2010-03-09T13:52:17Z</time>
      </trkpt>
      <trkpt lat="49.968420" lon="7.846190">
        <time>2010-03-09T13:52:19Z</time>
      </trkpt>
      <trkpt lat="49.968420" lon="7.846190">
        <time>2010-03-09T13:52:37Z</time>
      </trkpt>
      <trkpt lat="49.968640" lon="7.846640">
        <time>2010-03-09T13:52:43Z</time>
      </trkpt>
      <trkpt lat="49.968670" lon="7.846660">
        <time>2010-03-09T13:52:49Z</time>
      </trkpt>
      <trkpt lat="49.968710" lon="7.846740">
        <time>2010-03-09T13:52:51Z</time>
      </trkpt>
      <trkpt lat="49.968760" lon="7.846770">
        <time>2010-03-09T13:52:55Z</time>
      </trkpt>
      <trkpt lat="49.968870" lon="7.846870">
        <time>2010-03-09T13:53:03Z</time>
      </trkpt>
      <trkpt lat="49.969090" lon="7.847110">
        <time>2010-03-09T13:53:15Z</time>
      </trkpt>
      <trkpt lat="49.969120" lon="7.847150">
        <time>2010-03-09T13:53:21Z</time>
      </trkpt>
      <trkpt lat="49.969120" lon="7.847150">
        <time>2010-03-09T13:53:29Z</time>
      </trkpt>
      <trkpt lat="49.969320" lon="7.847600">
        <time>2010-03-09T13:53:35Z</time>
      </trkpt>
      <trkpt lat="49.969320" lon="7.847600">
        <time>2010-03-09T13:53:41Z</time>
      </trkpt>
      <trkpt lat="49.969320" lon="7.847600">
        <time>2010-03-09T13:53:43Z</time>
      </trkpt>
      <trkpt lat="49.969320" lon="7.847600">
        <time>2010-03-09T13:53:53Z</time>
      </trkpt>
      <trkpt lat="49.969370" lon="7.848010">
        <time>2010-03-09T13:53:59Z</time>
      </trkpt>
      <trkpt lat="49.969370" lon="7.848010">
        <time>2010-03-09T13:54:05Z</time>
      </trkpt>
      <trkpt lat="49.969450" lon="7.848270">
        <time>2010-03-09T13:54:09Z</time>
      </trkpt>
      <trkpt lat="49.969450" lon="7.848270">
        <time>2010-03-09T13:54:17Z</time>
      </trkpt>
      <trkpt lat="49.969450" lon="7.848270">
        <time>2010-03-09T13:54:19Z</time>
      </trkpt>
      <trkpt lat="49.969450" lon="7.848270">
        <time>2010-03-09T13:54:21Z</time>
      </trkpt>
      <trkpt lat="49.969610" lon="7.848680">
        <time>2010-03-09T13:54:27Z</time>
      </trkpt>
      <trkpt lat="49.969630" lon="7.848850">
        <time>2010-03-09T13:54:35Z</time>
      </trkpt>
      <trkpt lat="49.969610" lon="7.849000">
        <time>2010-03-09T13:54:47Z</time>
      </trkpt>
      <trkpt lat="49.969610" lon="7.849000">
        <time>2010-03-09T13:54:49Z</time>
      </trkpt>
      <trkpt lat="49.969610" lon="7.849000">
        <time>2010-03-09T13:54:51Z</time>
      </trkpt>
      <trkpt lat="49.969610" lon="7.849000">
        <time>2010-03-09T13:54:59Z</time>
      </trkpt>
      <trkpt lat="49.969610" lon="7.849450">
        <time>2010-03-09T13:55:05Z</time>
      </trkpt>
      <trkpt lat="49.969610" lon="7.849450">
        <time>2010-03-09T13:55:11Z</time>
      </trkpt>
      <trkpt lat="49.969610" lon="7.849620">
        <time>2010-03-09T13:55:15Z</time>
      </trkpt>
      <trkpt lat="49.969600" lon="7.849830">
        <time>2010-03-09T13:55:23Z</time>
      </trkpt>
      <trkpt lat="49.969610" lon="7.850070">
        <time>2010-03-09T13:55:35Z</time>
      </trkpt>
      <trkpt lat="49.969610" lon="7.850160">
        <time>2010-03-09T13:55:37Z</time>
      </trkpt>
      <trkpt lat="49.969600" lon="7.850330">
        <time>2010-03-09T13:55:47Z</time>
      </trkpt>
      <trkpt lat="49.969610" lon="7.850390">
        <time>2010-03-09T13:55:49Z</time>
      </trkpt>
      <trkpt lat="49.969660" lon="7.850520">
        <time>2010-03-09T13:55:59Z</time>
      </trkpt>
      <trkpt lat="49.969680" lon="7.850580">
        <time>2010-03-09T13:56:09Z</time>
      </trkpt>
      <trkpt lat="49.969680" lon="7.850580">
        <time>2010-03-09T13:56:11Z</time>
      </trkpt>
      <trkpt lat="49.969680" lon="7.850580">
        <time>2010-03-09T13:56:13Z</time>
      </trkpt>
      <trkpt lat="49.969680" lon="7.850580">
        <time>2010-03-09T13:56:21Z</time>
      </trkpt>
      <trkpt lat="49.969800" lon="7.850970">
        <time>2010-03-09T13:56:27Z</time>
      </trkpt>
      <trkpt lat="49.969820" lon="7.851230">
        <time>2010-03-09T13:56:35Z</time>
      </trkpt>
      <trkpt lat="49.969830" lon="7.851510">
        <time>2010-03-09T13:56:47Z</time>
      </trkpt>
      <trkpt lat="49.969830" lon="7.851510">
        <time>2010-03-09T13:56:49Z</time>
      </trkpt>
      <trkpt lat="49.969830" lon="7.851510">
        <time>2010-03-09T13:56:51Z</time>
      </trkpt>
      <trkpt lat="49.969830" lon="7.851510">
        <time>2010-03-09T13:56:59Z</time>
      </trkpt>
      <trkpt lat="49.969980" lon="7.851720">
        <time>2010-03-09T13:57:05Z</time>
      </trkpt>
      <trkpt lat="49.970110" lon="7.851890">
        <time>2010-03-09T13:57:17Z</time>
      </trkpt>
      <trkpt lat="49.970190" lon="7.852040">
        <time>2010-03-09T13:57:21Z</time>
      </trkpt>
      <trkpt lat="49.970270" lon="7.852170">
        <time>2010-03-09T13:57:29Z</time>
      </trkpt>
      <trkpt lat="49.970280" lon="7.852220">
        <time>2010-03-09T13:57:35Z</time>
      </trkpt>
      <trkpt lat="49.970330" lon="7.852340">
        <time>2010-03-09T13:57:39Z</time>
      </trkpt>
      <trkpt lat="49.970330" lon="7.852340">
        <time>2010-03-09T13:57:47Z</time>
      </trkpt>
      <trkpt lat="49.970330" lon="7.852340">
        <time>2010-03-09T13:57:49Z</time>
      </trkpt>
      <trkpt lat="49.970360" lon="7.852490">
        <time>2010-03-09T13:57:53Z</time>
      </trkpt>
      <trkpt lat="49.970360" lon="7.852490">
        <time>2010-03-09T13:58:01Z</time>
      </trkpt>
      <trkpt lat="49.970360" lon="7.852490">
        <time>2010-03-09T13:58:03Z</time>
      </trkpt>
      <trkpt lat="49.970360" lon="7.852490">
        <time>2010-03-09T13:58:05Z</time>
      </trkpt>
      <trkpt lat="49.970510" lon="7.852860">
        <time>2010-03-09T13:58:11Z</time>
      </trkpt>
      <trkpt lat="49.970550" lon="7.853010">
        <time>2010-03-09T13:58:19Z</time>
      </trkpt>
      <trkpt lat="49.970550" lon="7.853010">
        <time>2010-03-09T13:58:23Z</time>
      </trkpt>
      <trkpt lat="49.970550" lon="7.853010">
        <time>2010-03-09T13:58:25Z</time>
      </trkpt>
      <trkpt lat="49.970550" lon="7.853010">
        <time>2010-03-09T13:58:27Z</time>
      </trkpt>
    </trkseg>
    <trkseg>
      <trkpt lat="49.970550" lon="7.853010">
        <time>2010-03-09T13:58:27Z</time>
      </trkpt>
      <trkpt lat="49.970550" lon="7.853010">
        <time>2010-03-09T13:58:29Z</time>
      </trkpt>
      <trkpt lat="49.970550" lon="7.853010">
        <time>2010-03-09T13:58:31Z</time>
      </trkpt>
      <trkpt lat="49.970550" lon="7.853010">
        <time>2010-03-09T13:59:05Z</time>
      </trkpt>
      <trkpt lat="49.970470" lon="7.852880">
        <time>2010-03-09T13:59:11Z</time>
      </trkpt>
      <trkpt lat="49.970470" lon="7.852880">
        <time>2010-03-09T13:59:19Z</time>
      </trkpt>
      <trkpt lat="49.970750" lon="7.853010">
        <time>2010-03-09T13:59:25Z</time>
      </trkpt>
      <trkpt lat="49.970760" lon="7.853010">
        <time>2010-03-09T13:59:29Z</time>
      </trkpt>
      <trkpt lat="49.970760" lon="7.853010">
        <time>2010-03-09T13:59:30Z</time>
      </trkpt>
    </trkseg>
    <trkseg>
      <trkpt lat="49.970750" lon="7.853010">
        <time>2010-03-09T13:59:30Z</time>
      </trkpt>
      <trkpt lat="49.970750" lon="7.853010">
        <time>2010-03-09T13:59:35Z</time>
      </trkpt>
      <trkpt lat="49.970750" lon="7.853010">
        <time>2010-03-09T14:00:17Z</time>
      </trkpt>
    </trkseg>
  </trk>
</gpx>
